<?xml version="1.0" encoding="UTF-8" standalone="no" ?>
<gpx xmlns="http://www.topografix.com/GPX/1/1" xmlns:xsi="http://www.w3.org/2001/XMLSchema-instance" xsi:schemaLocation="http://www.topografix.com/GPX/1/1 http://www.topografix.com/GPX/1/1/gpx.xsd" version="1.1" creator="VisuGPX - https://www.visugpx.com">
  <metadata>
    <name>Malijai St Bonnet un tour par la ferme solaire</name>
    <desc><![CDATA[Malijai St Bonnet un tour par la ferme solaire
Le sentier est bien tracé et monte régulièrement dans un sous-bois parsemé de chênes... aujourd'hui heureux des pluies récentes, demain douloureux de ces terres maigres et arides ; 2h plus tard nous voilà sur une colline à contempler la colonisation du plateau par la ferme solaire et ses panneaux photovoltaïques ; ils épousent les pentes de leur faces luisantes et, étonnamment donnent une belle perspective vers Peyruis, la montagne de Lure, Mallefougasse... ]]></desc>
  </metadata>
  <trk>
    <name><![CDATA[Malijai ; tour par Haut-val]]></name>
    <trkseg>
      <trkpt lat="44.04301" lon="6.0279">
        <ele>437</ele>
        <time>2017-12-03T08:55:13.000Z</time>
      </trkpt>
      <trkpt lat="44.043" lon="6.02791">
        <ele>433.79998779297</ele>
        <time>2017-12-03T08:55:31.000Z</time>
      </trkpt>
      <trkpt lat="44.04284" lon="6.02804">
        <ele>438.79998779297</ele>
        <time>2017-12-03T08:56:11.000Z</time>
      </trkpt>
      <trkpt lat="44.04285" lon="6.02806">
        <ele>443.39999389648</ele>
        <time>2017-12-03T08:56:37.000Z</time>
      </trkpt>
      <trkpt lat="44.04284" lon="6.02804">
        <ele>445.20001220703</ele>
        <time>2017-12-03T08:57:02.000Z</time>
      </trkpt>
      <trkpt lat="44.04285" lon="6.02806">
        <ele>444.39999389648</ele>
        <time>2017-12-03T08:57:22.000Z</time>
      </trkpt>
      <trkpt lat="44.04276" lon="6.028">
        <ele>435.39999389648</ele>
        <time>2017-12-03T08:57:49.000Z</time>
      </trkpt>
      <trkpt lat="44.04281" lon="6.02805">
        <ele>441.39999389648</ele>
        <time>2017-12-03T08:58:51.000Z</time>
      </trkpt>
      <trkpt lat="44.04281" lon="6.02805">
        <ele>441.20001220703</ele>
        <time>2017-12-03T08:59:23.000Z</time>
      </trkpt>
      <trkpt lat="44.04278" lon="6.02809">
        <ele>441</ele>
        <time>2017-12-03T09:00:20.000Z</time>
      </trkpt>
      <trkpt lat="44.04283" lon="6.02808">
        <ele>441.39999389648</ele>
        <time>2017-12-03T09:00:43.000Z</time>
      </trkpt>
      <trkpt lat="44.04283" lon="6.028">
        <ele>441.39999389648</ele>
        <time>2017-12-03T09:01:00.000Z</time>
      </trkpt>
      <trkpt lat="44.04289" lon="6.0279">
        <ele>443.20001220703</ele>
        <time>2017-12-03T09:01:33.000Z</time>
      </trkpt>
      <trkpt lat="44.04295" lon="6.0279">
        <ele>442.60000610352</ele>
        <time>2017-12-03T09:01:55.000Z</time>
      </trkpt>
      <trkpt lat="44.04291" lon="6.02786">
        <ele>441</ele>
        <time>2017-12-03T09:02:54.000Z</time>
      </trkpt>
      <trkpt lat="44.04296" lon="6.02747">
        <ele>441.79998779297</ele>
        <time>2017-12-03T09:03:23.000Z</time>
      </trkpt>
      <trkpt lat="44.04298" lon="6.02736">
        <ele>442.20001220703</ele>
        <time>2017-12-03T09:03:29.000Z</time>
      </trkpt>
      <trkpt lat="44.04306" lon="6.02694">
        <ele>444.20001220703</ele>
        <time>2017-12-03T09:03:56.000Z</time>
      </trkpt>
      <trkpt lat="44.04308" lon="6.02665">
        <ele>445.79998779297</ele>
        <time>2017-12-03T09:04:17.000Z</time>
      </trkpt>
      <trkpt lat="44.04316" lon="6.0264">
        <ele>446.60000610352</ele>
        <time>2017-12-03T09:04:32.000Z</time>
      </trkpt>
      <trkpt lat="44.04321" lon="6.02614">
        <ele>447.39999389648</ele>
        <time>2017-12-03T09:04:51.000Z</time>
      </trkpt>
      <trkpt lat="44.04323" lon="6.02571">
        <ele>446.60000610352</ele>
        <time>2017-12-03T09:05:18.000Z</time>
      </trkpt>
      <trkpt lat="44.04326" lon="6.02524">
        <ele>447.20001220703</ele>
        <time>2017-12-03T09:05:46.000Z</time>
      </trkpt>
      <trkpt lat="44.0433" lon="6.02471">
        <ele>447</ele>
        <time>2017-12-03T09:06:17.000Z</time>
      </trkpt>
      <trkpt lat="44.04338" lon="6.02434">
        <ele>446</ele>
        <time>2017-12-03T09:06:44.000Z</time>
      </trkpt>
      <trkpt lat="44.04343" lon="6.02398">
        <ele>446</ele>
        <time>2017-12-03T09:07:07.000Z</time>
      </trkpt>
      <trkpt lat="44.04347" lon="6.02361">
        <ele>446</ele>
        <time>2017-12-03T09:07:33.000Z</time>
      </trkpt>
      <trkpt lat="44.04345" lon="6.02344">
        <ele>445.79998779297</ele>
        <time>2017-12-03T09:08:00.000Z</time>
      </trkpt>
      <trkpt lat="44.04339" lon="6.02341">
        <ele>445</ele>
        <time>2017-12-03T09:08:09.000Z</time>
      </trkpt>
      <trkpt lat="44.04334" lon="6.02339">
        <ele>444.79998779297</ele>
        <time>2017-12-03T09:08:18.000Z</time>
      </trkpt>
      <trkpt lat="44.04318" lon="6.02336">
        <ele>444</ele>
        <time>2017-12-03T09:08:36.000Z</time>
      </trkpt>
      <trkpt lat="44.0431" lon="6.02332">
        <ele>443.79998779297</ele>
        <time>2017-12-03T09:08:44.000Z</time>
      </trkpt>
      <trkpt lat="44.04307" lon="6.0233">
        <ele>443.79998779297</ele>
        <time>2017-12-03T09:08:48.000Z</time>
      </trkpt>
      <trkpt lat="44.0428" lon="6.0232">
        <ele>445.39999389648</ele>
        <time>2017-12-03T09:09:14.000Z</time>
      </trkpt>
      <trkpt lat="44.04271" lon="6.02272">
        <ele>448.60000610352</ele>
        <time>2017-12-03T09:09:40.000Z</time>
      </trkpt>
      <trkpt lat="44.04281" lon="6.02253">
        <ele>450</ele>
        <time>2017-12-03T09:10:10.000Z</time>
      </trkpt>
      <trkpt lat="44.04279" lon="6.02251">
        <ele>450</ele>
        <time>2017-12-03T09:10:13.000Z</time>
      </trkpt>
      <trkpt lat="44.04272" lon="6.02249">
        <ele>450.20001220703</ele>
        <time>2017-12-03T09:10:30.000Z</time>
      </trkpt>
      <trkpt lat="44.0426" lon="6.02245">
        <ele>450.60000610352</ele>
        <time>2017-12-03T09:10:47.000Z</time>
      </trkpt>
      <trkpt lat="44.04255" lon="6.02244">
        <ele>450.79998779297</ele>
        <time>2017-12-03T09:10:57.000Z</time>
      </trkpt>
      <trkpt lat="44.04242" lon="6.02245">
        <ele>452</ele>
        <time>2017-12-03T09:11:20.000Z</time>
      </trkpt>
      <trkpt lat="44.04234" lon="6.02245">
        <ele>452.60000610352</ele>
        <time>2017-12-03T09:11:33.000Z</time>
      </trkpt>
      <trkpt lat="44.04223" lon="6.02242">
        <ele>454</ele>
        <time>2017-12-03T09:11:58.000Z</time>
      </trkpt>
      <trkpt lat="44.04211" lon="6.02248">
        <ele>455.20001220703</ele>
        <time>2017-12-03T09:12:19.000Z</time>
      </trkpt>
      <trkpt lat="44.04194" lon="6.02251">
        <ele>456.79998779297</ele>
        <time>2017-12-03T09:12:47.000Z</time>
      </trkpt>
      <trkpt lat="44.04177" lon="6.02258">
        <ele>458.39999389648</ele>
        <time>2017-12-03T09:13:17.000Z</time>
      </trkpt>
      <trkpt lat="44.04168" lon="6.02258">
        <ele>459.39999389648</ele>
        <time>2017-12-03T09:13:34.000Z</time>
      </trkpt>
      <trkpt lat="44.04158" lon="6.02256">
        <ele>461.20001220703</ele>
        <time>2017-12-03T09:13:49.000Z</time>
      </trkpt>
      <trkpt lat="44.0415" lon="6.02266">
        <ele>466.79998779297</ele>
        <time>2017-12-03T09:14:10.000Z</time>
      </trkpt>
      <trkpt lat="44.04137" lon="6.0226">
        <ele>472.39999389648</ele>
        <time>2017-12-03T09:14:31.000Z</time>
      </trkpt>
      <trkpt lat="44.04135" lon="6.02256">
        <ele>474.20001220703</ele>
        <time>2017-12-03T09:14:42.000Z</time>
      </trkpt>
      <trkpt lat="44.04117" lon="6.02252">
        <ele>477.39999389648</ele>
        <time>2017-12-03T09:15:10.000Z</time>
      </trkpt>
      <trkpt lat="44.04088" lon="6.02245">
        <ele>482.39999389648</ele>
        <time>2017-12-03T09:15:39.000Z</time>
      </trkpt>
      <trkpt lat="44.04066" lon="6.02242">
        <ele>488.39999389648</ele>
        <time>2017-12-03T09:16:10.000Z</time>
      </trkpt>
      <trkpt lat="44.04054" lon="6.02247">
        <ele>491.20001220703</ele>
        <time>2017-12-03T09:16:25.000Z</time>
      </trkpt>
      <trkpt lat="44.04036" lon="6.02245">
        <ele>496.39999389648</ele>
        <time>2017-12-03T09:16:45.000Z</time>
      </trkpt>
      <trkpt lat="44.04018" lon="6.0224">
        <ele>500.79998779297</ele>
        <time>2017-12-03T09:17:05.000Z</time>
      </trkpt>
      <trkpt lat="44.03998" lon="6.02234">
        <ele>504.39999389648</ele>
        <time>2017-12-03T09:17:29.000Z</time>
      </trkpt>
      <trkpt lat="44.03987" lon="6.02228">
        <ele>506.79998779297</ele>
        <time>2017-12-03T09:17:52.000Z</time>
      </trkpt>
      <trkpt lat="44.03968" lon="6.02217">
        <ele>511.20001220703</ele>
        <time>2017-12-03T09:18:29.000Z</time>
      </trkpt>
      <trkpt lat="44.03954" lon="6.02204">
        <ele>514.40002441406</ele>
        <time>2017-12-03T09:18:59.000Z</time>
      </trkpt>
      <trkpt lat="44.03937" lon="6.02193">
        <ele>517.59997558594</ele>
        <time>2017-12-03T09:19:33.000Z</time>
      </trkpt>
      <trkpt lat="44.03922" lon="6.02186">
        <ele>519.20001220703</ele>
        <time>2017-12-03T09:20:07.000Z</time>
      </trkpt>
      <trkpt lat="44.03919" lon="6.02184">
        <ele>519.40002441406</ele>
        <time>2017-12-03T09:20:15.000Z</time>
      </trkpt>
      <trkpt lat="44.03903" lon="6.02183">
        <ele>520</ele>
        <time>2017-12-03T09:20:40.000Z</time>
      </trkpt>
      <trkpt lat="44.03892" lon="6.02181">
        <ele>521.59997558594</ele>
        <time>2017-12-03T09:21:03.000Z</time>
      </trkpt>
      <trkpt lat="44.03877" lon="6.02178">
        <ele>523</ele>
        <time>2017-12-03T09:21:28.000Z</time>
      </trkpt>
      <trkpt lat="44.03859" lon="6.02167">
        <ele>525.79998779297</ele>
        <time>2017-12-03T09:22:01.000Z</time>
      </trkpt>
      <trkpt lat="44.03848" lon="6.02161">
        <ele>528.40002441406</ele>
        <time>2017-12-03T09:22:26.000Z</time>
      </trkpt>
      <trkpt lat="44.0383" lon="6.02155">
        <ele>531.20001220703</ele>
        <time>2017-12-03T09:22:59.000Z</time>
      </trkpt>
      <trkpt lat="44.03815" lon="6.02154">
        <ele>534</ele>
        <time>2017-12-03T09:23:32.000Z</time>
      </trkpt>
      <trkpt lat="44.03799" lon="6.02151">
        <ele>535.59997558594</ele>
        <time>2017-12-03T09:24:01.000Z</time>
      </trkpt>
      <trkpt lat="44.03795" lon="6.02151">
        <ele>537.79998779297</ele>
        <time>2017-12-03T09:24:12.000Z</time>
      </trkpt>
      <trkpt lat="44.03785" lon="6.02134">
        <ele>548.20001220703</ele>
        <time>2017-12-03T09:25:01.000Z</time>
      </trkpt>
      <trkpt lat="44.03779" lon="6.02139">
        <ele>552.59997558594</ele>
        <time>2017-12-03T09:25:33.000Z</time>
      </trkpt>
      <trkpt lat="44.03767" lon="6.02133">
        <ele>555.59997558594</ele>
        <time>2017-12-03T09:25:59.000Z</time>
      </trkpt>
      <trkpt lat="44.03765" lon="6.02133">
        <ele>555.79998779297</ele>
        <time>2017-12-03T09:26:06.000Z</time>
      </trkpt>
      <trkpt lat="44.03757" lon="6.02127">
        <ele>557.79998779297</ele>
        <time>2017-12-03T09:26:21.000Z</time>
      </trkpt>
      <trkpt lat="44.03746" lon="6.02121">
        <ele>560.20001220703</ele>
        <time>2017-12-03T09:26:55.000Z</time>
      </trkpt>
      <trkpt lat="44.03735" lon="6.02128">
        <ele>562.79998779297</ele>
        <time>2017-12-03T09:27:27.000Z</time>
      </trkpt>
      <trkpt lat="44.03722" lon="6.02114">
        <ele>569</ele>
        <time>2017-12-03T09:27:58.000Z</time>
      </trkpt>
      <trkpt lat="44.03721" lon="6.02112">
        <ele>569.20001220703</ele>
        <time>2017-12-03T09:28:03.000Z</time>
      </trkpt>
      <trkpt lat="44.03713" lon="6.02101">
        <ele>573.59997558594</ele>
        <time>2017-12-03T09:28:33.000Z</time>
      </trkpt>
      <trkpt lat="44.03705" lon="6.02103">
        <ele>577.59997558594</ele>
        <time>2017-12-03T09:29:00.000Z</time>
      </trkpt>
      <trkpt lat="44.03697" lon="6.02109">
        <ele>579.79998779297</ele>
        <time>2017-12-03T09:29:22.000Z</time>
      </trkpt>
      <trkpt lat="44.03682" lon="6.02117">
        <ele>583.59997558594</ele>
        <time>2017-12-03T09:29:54.000Z</time>
      </trkpt>
      <trkpt lat="44.03677" lon="6.02107">
        <ele>588</ele>
        <time>2017-12-03T09:30:16.000Z</time>
      </trkpt>
      <trkpt lat="44.03675" lon="6.02096">
        <ele>589.20001220703</ele>
        <time>2017-12-03T09:30:33.000Z</time>
      </trkpt>
      <trkpt lat="44.0368" lon="6.02098">
        <ele>591.79998779297</ele>
        <time>2017-12-03T09:31:19.000Z</time>
      </trkpt>
      <trkpt lat="44.03677" lon="6.02113">
        <ele>592.79998779297</ele>
        <time>2017-12-03T09:31:44.000Z</time>
      </trkpt>
      <trkpt lat="44.03676" lon="6.02118">
        <ele>593.20001220703</ele>
        <time>2017-12-03T09:31:55.000Z</time>
      </trkpt>
      <trkpt lat="44.03675" lon="6.02114">
        <ele>596</ele>
        <time>2017-12-03T09:32:31.000Z</time>
      </trkpt>
      <trkpt lat="44.03673" lon="6.02121">
        <ele>596.40002441406</ele>
        <time>2017-12-03T09:32:50.000Z</time>
      </trkpt>
      <trkpt lat="44.03673" lon="6.02118">
        <ele>598</ele>
        <time>2017-12-03T09:33:46.000Z</time>
      </trkpt>
      <trkpt lat="44.03673" lon="6.02124">
        <ele>596.40002441406</ele>
        <time>2017-12-03T09:34:48.000Z</time>
      </trkpt>
      <trkpt lat="44.03677" lon="6.02118">
        <ele>597.40002441406</ele>
        <time>2017-12-03T09:35:10.000Z</time>
      </trkpt>
      <trkpt lat="44.03673" lon="6.02113">
        <ele>597.59997558594</ele>
        <time>2017-12-03T09:35:41.000Z</time>
      </trkpt>
      <trkpt lat="44.03663" lon="6.02112">
        <ele>598</ele>
        <time>2017-12-03T09:36:08.000Z</time>
      </trkpt>
      <trkpt lat="44.03647" lon="6.02116">
        <ele>599</ele>
        <time>2017-12-03T09:36:35.000Z</time>
      </trkpt>
      <trkpt lat="44.03629" lon="6.02122">
        <ele>600.79998779297</ele>
        <time>2017-12-03T09:36:59.000Z</time>
      </trkpt>
      <trkpt lat="44.0361" lon="6.02122">
        <ele>601.40002441406</ele>
        <time>2017-12-03T09:37:24.000Z</time>
      </trkpt>
      <trkpt lat="44.03591" lon="6.02126">
        <ele>603.59997558594</ele>
        <time>2017-12-03T09:37:48.000Z</time>
      </trkpt>
      <trkpt lat="44.03573" lon="6.02129">
        <ele>605.59997558594</ele>
        <time>2017-12-03T09:38:11.000Z</time>
      </trkpt>
      <trkpt lat="44.03555" lon="6.02131">
        <ele>605.40002441406</ele>
        <time>2017-12-03T09:38:32.000Z</time>
      </trkpt>
      <trkpt lat="44.03533" lon="6.02133">
        <ele>605.20001220703</ele>
        <time>2017-12-03T09:38:54.000Z</time>
      </trkpt>
      <trkpt lat="44.03508" lon="6.02138">
        <ele>606.59997558594</ele>
        <time>2017-12-03T09:39:18.000Z</time>
      </trkpt>
      <trkpt lat="44.03486" lon="6.02133">
        <ele>607</ele>
        <time>2017-12-03T09:39:43.000Z</time>
      </trkpt>
      <trkpt lat="44.03466" lon="6.02132">
        <ele>606.20001220703</ele>
        <time>2017-12-03T09:40:03.000Z</time>
      </trkpt>
      <trkpt lat="44.03444" lon="6.02131">
        <ele>607.20001220703</ele>
        <time>2017-12-03T09:40:26.000Z</time>
      </trkpt>
      <trkpt lat="44.03426" lon="6.02135">
        <ele>607.59997558594</ele>
        <time>2017-12-03T09:40:45.000Z</time>
      </trkpt>
      <trkpt lat="44.03415" lon="6.02137">
        <ele>607.79998779297</ele>
        <time>2017-12-03T09:40:55.000Z</time>
      </trkpt>
      <trkpt lat="44.03395" lon="6.02139">
        <ele>607.79998779297</ele>
        <time>2017-12-03T09:41:16.000Z</time>
      </trkpt>
      <trkpt lat="44.03374" lon="6.02137">
        <ele>608.59997558594</ele>
        <time>2017-12-03T09:41:37.000Z</time>
      </trkpt>
      <trkpt lat="44.03355" lon="6.02141">
        <ele>609</ele>
        <time>2017-12-03T09:41:58.000Z</time>
      </trkpt>
      <trkpt lat="44.03337" lon="6.02144">
        <ele>610.59997558594</ele>
        <time>2017-12-03T09:42:20.000Z</time>
      </trkpt>
      <trkpt lat="44.03318" lon="6.02145">
        <ele>611.40002441406</ele>
        <time>2017-12-03T09:42:42.000Z</time>
      </trkpt>
      <trkpt lat="44.03296" lon="6.0215">
        <ele>612.40002441406</ele>
        <time>2017-12-03T09:43:06.000Z</time>
      </trkpt>
      <trkpt lat="44.03274" lon="6.02155">
        <ele>612.20001220703</ele>
        <time>2017-12-03T09:43:29.000Z</time>
      </trkpt>
      <trkpt lat="44.03256" lon="6.0215">
        <ele>614.59997558594</ele>
        <time>2017-12-03T09:43:52.000Z</time>
      </trkpt>
      <trkpt lat="44.0324" lon="6.02154">
        <ele>615</ele>
        <time>2017-12-03T09:44:21.000Z</time>
      </trkpt>
      <trkpt lat="44.03225" lon="6.02157">
        <ele>621</ele>
        <time>2017-12-03T09:44:48.000Z</time>
      </trkpt>
      <trkpt lat="44.03214" lon="6.02163">
        <ele>625</ele>
        <time>2017-12-03T09:45:12.000Z</time>
      </trkpt>
      <trkpt lat="44.03204" lon="6.02162">
        <ele>629.20001220703</ele>
        <time>2017-12-03T09:45:38.000Z</time>
      </trkpt>
      <trkpt lat="44.03192" lon="6.02166">
        <ele>633.59997558594</ele>
        <time>2017-12-03T09:46:06.000Z</time>
      </trkpt>
      <trkpt lat="44.03184" lon="6.02163">
        <ele>636.79998779297</ele>
        <time>2017-12-03T09:46:32.000Z</time>
      </trkpt>
      <trkpt lat="44.03174" lon="6.02164">
        <ele>641.40002441406</ele>
        <time>2017-12-03T09:47:01.000Z</time>
      </trkpt>
      <trkpt lat="44.03168" lon="6.02158">
        <ele>644.40002441406</ele>
        <time>2017-12-03T09:47:28.000Z</time>
      </trkpt>
      <trkpt lat="44.03157" lon="6.02156">
        <ele>649.20001220703</ele>
        <time>2017-12-03T09:48:00.000Z</time>
      </trkpt>
      <trkpt lat="44.03142" lon="6.02157">
        <ele>652.79998779297</ele>
        <time>2017-12-03T09:48:32.000Z</time>
      </trkpt>
      <trkpt lat="44.03134" lon="6.02151">
        <ele>657</ele>
        <time>2017-12-03T09:49:03.000Z</time>
      </trkpt>
      <trkpt lat="44.03121" lon="6.02149">
        <ele>661</ele>
        <time>2017-12-03T09:49:34.000Z</time>
      </trkpt>
      <trkpt lat="44.03112" lon="6.02143">
        <ele>664</ele>
        <time>2017-12-03T09:50:03.000Z</time>
      </trkpt>
      <trkpt lat="44.03101" lon="6.02138">
        <ele>667.59997558594</ele>
        <time>2017-12-03T09:50:31.000Z</time>
      </trkpt>
      <trkpt lat="44.03102" lon="6.02139">
        <ele>672.40002441406</ele>
        <time>2017-12-03T09:51:19.000Z</time>
      </trkpt>
      <trkpt lat="44.03104" lon="6.02136">
        <ele>677.59997558594</ele>
        <time>2017-12-03T09:51:56.000Z</time>
      </trkpt>
      <trkpt lat="44.03107" lon="6.02144">
        <ele>682.59997558594</ele>
        <time>2017-12-03T09:52:48.000Z</time>
      </trkpt>
      <trkpt lat="44.03105" lon="6.02141">
        <ele>683</ele>
        <time>2017-12-03T09:53:45.000Z</time>
      </trkpt>
      <trkpt lat="44.03095" lon="6.02138">
        <ele>682.79998779297</ele>
        <time>2017-12-03T09:54:20.000Z</time>
      </trkpt>
      <trkpt lat="44.03085" lon="6.02138">
        <ele>683.20001220703</ele>
        <time>2017-12-03T09:54:49.000Z</time>
      </trkpt>
      <trkpt lat="44.03075" lon="6.02141">
        <ele>684.79998779297</ele>
        <time>2017-12-03T09:55:16.000Z</time>
      </trkpt>
      <trkpt lat="44.03062" lon="6.0214">
        <ele>687.59997558594</ele>
        <time>2017-12-03T09:55:56.000Z</time>
      </trkpt>
      <trkpt lat="44.0305" lon="6.02139">
        <ele>689.79998779297</ele>
        <time>2017-12-03T09:56:30.000Z</time>
      </trkpt>
      <trkpt lat="44.03039" lon="6.02137">
        <ele>692.20001220703</ele>
        <time>2017-12-03T09:56:57.000Z</time>
      </trkpt>
      <trkpt lat="44.03032" lon="6.02148">
        <ele>699.20001220703</ele>
        <time>2017-12-03T09:57:23.000Z</time>
      </trkpt>
      <trkpt lat="44.03025" lon="6.02153">
        <ele>703.59997558594</ele>
        <time>2017-12-03T09:57:48.000Z</time>
      </trkpt>
      <trkpt lat="44.03017" lon="6.02156">
        <ele>707</ele>
        <time>2017-12-03T09:58:10.000Z</time>
      </trkpt>
      <trkpt lat="44.03001" lon="6.02159">
        <ele>710.20001220703</ele>
        <time>2017-12-03T09:58:32.000Z</time>
      </trkpt>
      <trkpt lat="44.02988" lon="6.02157">
        <ele>710.79998779297</ele>
        <time>2017-12-03T09:58:49.000Z</time>
      </trkpt>
      <trkpt lat="44.02971" lon="6.02155">
        <ele>712.20001220703</ele>
        <time>2017-12-03T09:59:08.000Z</time>
      </trkpt>
      <trkpt lat="44.0296" lon="6.02153">
        <ele>712.40002441406</ele>
        <time>2017-12-03T09:59:25.000Z</time>
      </trkpt>
      <trkpt lat="44.02945" lon="6.02149">
        <ele>713</ele>
        <time>2017-12-03T09:59:41.000Z</time>
      </trkpt>
      <trkpt lat="44.02928" lon="6.02142">
        <ele>712.20001220703</ele>
        <time>2017-12-03T10:00:04.000Z</time>
      </trkpt>
      <trkpt lat="44.02914" lon="6.02132">
        <ele>712.79998779297</ele>
        <time>2017-12-03T10:00:23.000Z</time>
      </trkpt>
      <trkpt lat="44.02913" lon="6.02141">
        <ele>713.59997558594</ele>
        <time>2017-12-03T10:01:23.000Z</time>
      </trkpt>
      <trkpt lat="44.02909" lon="6.0214">
        <ele>714.59997558594</ele>
        <time>2017-12-03T10:02:18.000Z</time>
      </trkpt>
      <trkpt lat="44.02909" lon="6.02143">
        <ele>715.20001220703</ele>
        <time>2017-12-03T10:02:40.000Z</time>
      </trkpt>
      <trkpt lat="44.02904" lon="6.02144">
        <ele>715.20001220703</ele>
        <time>2017-12-03T10:03:11.000Z</time>
      </trkpt>
      <trkpt lat="44.02902" lon="6.02143">
        <ele>715.20001220703</ele>
        <time>2017-12-03T10:03:48.000Z</time>
      </trkpt>
      <trkpt lat="44.02897" lon="6.02134">
        <ele>713.59997558594</ele>
        <time>2017-12-03T10:04:16.000Z</time>
      </trkpt>
      <trkpt lat="44.02887" lon="6.02128">
        <ele>713.59997558594</ele>
        <time>2017-12-03T10:04:37.000Z</time>
      </trkpt>
      <trkpt lat="44.02873" lon="6.02122">
        <ele>713.59997558594</ele>
        <time>2017-12-03T10:05:06.000Z</time>
      </trkpt>
      <trkpt lat="44.02854" lon="6.02114">
        <ele>716.20001220703</ele>
        <time>2017-12-03T10:05:40.000Z</time>
      </trkpt>
      <trkpt lat="44.02839" lon="6.02109">
        <ele>719.59997558594</ele>
        <time>2017-12-03T10:06:07.000Z</time>
      </trkpt>
      <trkpt lat="44.02823" lon="6.021">
        <ele>725.59997558594</ele>
        <time>2017-12-03T10:06:49.000Z</time>
      </trkpt>
      <trkpt lat="44.02809" lon="6.02094">
        <ele>729.20001220703</ele>
        <time>2017-12-03T10:07:21.000Z</time>
      </trkpt>
      <trkpt lat="44.02797" lon="6.02095">
        <ele>733.20001220703</ele>
        <time>2017-12-03T10:07:48.000Z</time>
      </trkpt>
      <trkpt lat="44.02785" lon="6.02087">
        <ele>737.59997558594</ele>
        <time>2017-12-03T10:08:13.000Z</time>
      </trkpt>
      <trkpt lat="44.02772" lon="6.02081">
        <ele>741.79998779297</ele>
        <time>2017-12-03T10:08:41.000Z</time>
      </trkpt>
      <trkpt lat="44.02758" lon="6.02075">
        <ele>744.79998779297</ele>
        <time>2017-12-03T10:09:05.000Z</time>
      </trkpt>
      <trkpt lat="44.02744" lon="6.02073">
        <ele>746</ele>
        <time>2017-12-03T10:09:24.000Z</time>
      </trkpt>
      <trkpt lat="44.02727" lon="6.0207">
        <ele>746.59997558594</ele>
        <time>2017-12-03T10:09:46.000Z</time>
      </trkpt>
      <trkpt lat="44.02712" lon="6.02067">
        <ele>746.20001220703</ele>
        <time>2017-12-03T10:10:06.000Z</time>
      </trkpt>
      <trkpt lat="44.02696" lon="6.02058">
        <ele>746.20001220703</ele>
        <time>2017-12-03T10:10:27.000Z</time>
      </trkpt>
      <trkpt lat="44.02677" lon="6.02051">
        <ele>746.79998779297</ele>
        <time>2017-12-03T10:10:53.000Z</time>
      </trkpt>
      <trkpt lat="44.02663" lon="6.02046">
        <ele>748</ele>
        <time>2017-12-03T10:11:18.000Z</time>
      </trkpt>
      <trkpt lat="44.02654" lon="6.02038">
        <ele>749</ele>
        <time>2017-12-03T10:11:36.000Z</time>
      </trkpt>
      <trkpt lat="44.0264" lon="6.02026">
        <ele>751.79998779297</ele>
        <time>2017-12-03T10:12:08.000Z</time>
      </trkpt>
      <trkpt lat="44.02624" lon="6.02021">
        <ele>756</ele>
        <time>2017-12-03T10:12:41.000Z</time>
      </trkpt>
      <trkpt lat="44.02616" lon="6.02014">
        <ele>760</ele>
        <time>2017-12-03T10:13:11.000Z</time>
      </trkpt>
      <trkpt lat="44.02611" lon="6.02008">
        <ele>764.59997558594</ele>
        <time>2017-12-03T10:13:35.000Z</time>
      </trkpt>
      <trkpt lat="44.02607" lon="6.02006">
        <ele>771</ele>
        <time>2017-12-03T10:14:09.000Z</time>
      </trkpt>
      <trkpt lat="44.02609" lon="6.02007">
        <ele>774.79998779297</ele>
        <time>2017-12-03T10:14:52.000Z</time>
      </trkpt>
      <trkpt lat="44.02607" lon="6.02004">
        <ele>780</ele>
        <time>2017-12-03T10:15:41.000Z</time>
      </trkpt>
      <trkpt lat="44.02598" lon="6.02012">
        <ele>779.79998779297</ele>
        <time>2017-12-03T10:16:00.000Z</time>
      </trkpt>
      <trkpt lat="44.02574" lon="6.02019">
        <ele>779.79998779297</ele>
        <time>2017-12-03T10:16:25.000Z</time>
      </trkpt>
      <trkpt lat="44.02556" lon="6.02024">
        <ele>779</ele>
        <time>2017-12-03T10:16:42.000Z</time>
      </trkpt>
      <trkpt lat="44.02535" lon="6.02034">
        <ele>776.79998779297</ele>
        <time>2017-12-03T10:17:01.000Z</time>
      </trkpt>
      <trkpt lat="44.02526" lon="6.02046">
        <ele>780</ele>
        <time>2017-12-03T10:17:56.000Z</time>
      </trkpt>
      <trkpt lat="44.02515" lon="6.02055">
        <ele>778.40002441406</ele>
        <time>2017-12-03T10:18:10.000Z</time>
      </trkpt>
      <trkpt lat="44.02506" lon="6.02067">
        <ele>777.40002441406</ele>
        <time>2017-12-03T10:18:21.000Z</time>
      </trkpt>
      <trkpt lat="44.02487" lon="6.02091">
        <ele>775.79998779297</ele>
        <time>2017-12-03T10:18:42.000Z</time>
      </trkpt>
      <trkpt lat="44.02474" lon="6.02109">
        <ele>774.79998779297</ele>
        <time>2017-12-03T10:19:00.000Z</time>
      </trkpt>
      <trkpt lat="44.02472" lon="6.02112">
        <ele>774.40002441406</ele>
        <time>2017-12-03T10:19:03.000Z</time>
      </trkpt>
      <trkpt lat="44.02464" lon="6.02134">
        <ele>771.20001220703</ele>
        <time>2017-12-03T10:19:20.000Z</time>
      </trkpt>
      <trkpt lat="44.02464" lon="6.0216">
        <ele>767.59997558594</ele>
        <time>2017-12-03T10:19:40.000Z</time>
      </trkpt>
      <trkpt lat="44.02463" lon="6.02164">
        <ele>767.40002441406</ele>
        <time>2017-12-03T10:19:42.000Z</time>
      </trkpt>
      <trkpt lat="44.02463" lon="6.02169">
        <ele>767</ele>
        <time>2017-12-03T10:19:51.000Z</time>
      </trkpt>
      <trkpt lat="44.02464" lon="6.02175">
        <ele>768</ele>
        <time>2017-12-03T10:20:08.000Z</time>
      </trkpt>
      <trkpt lat="44.02463" lon="6.022">
        <ele>768.79998779297</ele>
        <time>2017-12-03T10:20:34.000Z</time>
      </trkpt>
      <trkpt lat="44.02466" lon="6.02215">
        <ele>769.79998779297</ele>
        <time>2017-12-03T10:20:51.000Z</time>
      </trkpt>
      <trkpt lat="44.0246" lon="6.02241">
        <ele>772.40002441406</ele>
        <time>2017-12-03T10:21:15.000Z</time>
      </trkpt>
      <trkpt lat="44.02453" lon="6.02259">
        <ele>773.59997558594</ele>
        <time>2017-12-03T10:21:38.000Z</time>
      </trkpt>
      <trkpt lat="44.02454" lon="6.02272">
        <ele>775.59997558594</ele>
        <time>2017-12-03T10:22:01.000Z</time>
      </trkpt>
      <trkpt lat="44.0245" lon="6.02291">
        <ele>779</ele>
        <time>2017-12-03T10:22:29.000Z</time>
      </trkpt>
      <trkpt lat="44.02443" lon="6.02308">
        <ele>781.40002441406</ele>
        <time>2017-12-03T10:22:51.000Z</time>
      </trkpt>
      <trkpt lat="44.02435" lon="6.02325">
        <ele>784.79998779297</ele>
        <time>2017-12-03T10:23:11.000Z</time>
      </trkpt>
      <trkpt lat="44.0243" lon="6.02339">
        <ele>788.20001220703</ele>
        <time>2017-12-03T10:23:30.000Z</time>
      </trkpt>
      <trkpt lat="44.02422" lon="6.02359">
        <ele>793</ele>
        <time>2017-12-03T10:23:54.000Z</time>
      </trkpt>
      <trkpt lat="44.02414" lon="6.02378">
        <ele>797.20001220703</ele>
        <time>2017-12-03T10:24:18.000Z</time>
      </trkpt>
      <trkpt lat="44.02402" lon="6.02397">
        <ele>801.20001220703</ele>
        <time>2017-12-03T10:24:43.000Z</time>
      </trkpt>
      <trkpt lat="44.02401" lon="6.02415">
        <ele>802.20001220703</ele>
        <time>2017-12-03T10:25:03.000Z</time>
      </trkpt>
      <trkpt lat="44.02403" lon="6.02442">
        <ele>802.79998779297</ele>
        <time>2017-12-03T10:25:29.000Z</time>
      </trkpt>
      <trkpt lat="44.02398" lon="6.02466">
        <ele>805.20001220703</ele>
        <time>2017-12-03T10:25:57.000Z</time>
      </trkpt>
      <trkpt lat="44.02392" lon="6.02488">
        <ele>807.20001220703</ele>
        <time>2017-12-03T10:26:23.000Z</time>
      </trkpt>
      <trkpt lat="44.02388" lon="6.02509">
        <ele>809.40002441406</ele>
        <time>2017-12-03T10:26:46.000Z</time>
      </trkpt>
      <trkpt lat="44.02384" lon="6.02529">
        <ele>812</ele>
        <time>2017-12-03T10:27:08.000Z</time>
      </trkpt>
      <trkpt lat="44.02378" lon="6.02546">
        <ele>814.79998779297</ele>
        <time>2017-12-03T10:27:25.000Z</time>
      </trkpt>
      <trkpt lat="44.02369" lon="6.02558">
        <ele>817.59997558594</ele>
        <time>2017-12-03T10:27:41.000Z</time>
      </trkpt>
      <trkpt lat="44.0236" lon="6.02569">
        <ele>820</ele>
        <time>2017-12-03T10:27:57.000Z</time>
      </trkpt>
      <trkpt lat="44.02358" lon="6.02571">
        <ele>820.20001220703</ele>
        <time>2017-12-03T10:28:00.000Z</time>
      </trkpt>
      <trkpt lat="44.02355" lon="6.02576">
        <ele>821</ele>
        <time>2017-12-03T10:28:05.000Z</time>
      </trkpt>
      <trkpt lat="44.02352" lon="6.02579">
        <ele>821</ele>
        <time>2017-12-03T10:28:09.000Z</time>
      </trkpt>
      <trkpt lat="44.02349" lon="6.02584">
        <ele>821.40002441406</ele>
        <time>2017-12-03T10:28:13.000Z</time>
      </trkpt>
      <trkpt lat="44.02339" lon="6.02598">
        <ele>821.79998779297</ele>
        <time>2017-12-03T10:28:30.000Z</time>
      </trkpt>
      <trkpt lat="44.02328" lon="6.02612">
        <ele>823</ele>
        <time>2017-12-03T10:28:49.000Z</time>
      </trkpt>
      <trkpt lat="44.02322" lon="6.02615">
        <ele>825.20001220703</ele>
        <time>2017-12-03T10:29:09.000Z</time>
      </trkpt>
      <trkpt lat="44.02315" lon="6.02618">
        <ele>825</ele>
        <time>2017-12-03T10:29:23.000Z</time>
      </trkpt>
      <trkpt lat="44.02305" lon="6.02613">
        <ele>825.40002441406</ele>
        <time>2017-12-03T10:29:35.000Z</time>
      </trkpt>
      <trkpt lat="44.02301" lon="6.02612">
        <ele>825.79998779297</ele>
        <time>2017-12-03T10:29:39.000Z</time>
      </trkpt>
      <trkpt lat="44.02295" lon="6.02609">
        <ele>825.79998779297</ele>
        <time>2017-12-03T10:29:45.000Z</time>
      </trkpt>
      <trkpt lat="44.02292" lon="6.02608">
        <ele>825.79998779297</ele>
        <time>2017-12-03T10:29:48.000Z</time>
      </trkpt>
      <trkpt lat="44.02271" lon="6.02598">
        <ele>827</ele>
        <time>2017-12-03T10:30:08.000Z</time>
      </trkpt>
      <trkpt lat="44.02257" lon="6.02591">
        <ele>829.59997558594</ele>
        <time>2017-12-03T10:30:22.000Z</time>
      </trkpt>
      <trkpt lat="44.02243" lon="6.02583">
        <ele>828.20001220703</ele>
        <time>2017-12-03T10:30:37.000Z</time>
      </trkpt>
      <trkpt lat="44.0223" lon="6.02585">
        <ele>826.79998779297</ele>
        <time>2017-12-03T10:30:52.000Z</time>
      </trkpt>
      <trkpt lat="44.02212" lon="6.02582">
        <ele>825.79998779297</ele>
        <time>2017-12-03T10:31:11.000Z</time>
      </trkpt>
      <trkpt lat="44.0219" lon="6.02581">
        <ele>826.59997558594</ele>
        <time>2017-12-03T10:31:41.000Z</time>
      </trkpt>
      <trkpt lat="44.02173" lon="6.02578">
        <ele>827</ele>
        <time>2017-12-03T10:32:00.000Z</time>
      </trkpt>
      <trkpt lat="44.02159" lon="6.02582">
        <ele>826.20001220703</ele>
        <time>2017-12-03T10:32:18.000Z</time>
      </trkpt>
      <trkpt lat="44.02143" lon="6.02586">
        <ele>827.59997558594</ele>
        <time>2017-12-03T10:32:34.000Z</time>
      </trkpt>
      <trkpt lat="44.0213" lon="6.02593">
        <ele>827.40002441406</ele>
        <time>2017-12-03T10:32:48.000Z</time>
      </trkpt>
      <trkpt lat="44.02109" lon="6.02597">
        <ele>826.59997558594</ele>
        <time>2017-12-03T10:33:08.000Z</time>
      </trkpt>
      <trkpt lat="44.02107" lon="6.02597">
        <ele>826.40002441406</ele>
        <time>2017-12-03T10:33:10.000Z</time>
      </trkpt>
      <trkpt lat="44.02081" lon="6.02597">
        <ele>823.20001220703</ele>
        <time>2017-12-03T10:33:32.000Z</time>
      </trkpt>
      <trkpt lat="44.0206" lon="6.02589">
        <ele>819</ele>
        <time>2017-12-03T10:33:53.000Z</time>
      </trkpt>
      <trkpt lat="44.02037" lon="6.02579">
        <ele>824</ele>
        <time>2017-12-03T10:34:12.000Z</time>
      </trkpt>
      <trkpt lat="44.02019" lon="6.02564">
        <ele>828</ele>
        <time>2017-12-03T10:34:30.000Z</time>
      </trkpt>
      <trkpt lat="44.02007" lon="6.02555">
        <ele>830</ele>
        <time>2017-12-03T10:34:45.000Z</time>
      </trkpt>
      <trkpt lat="44.02002" lon="6.02549">
        <ele>829.59997558594</ele>
        <time>2017-12-03T10:34:50.000Z</time>
      </trkpt>
      <trkpt lat="44.01997" lon="6.02552">
        <ele>831.79998779297</ele>
        <time>2017-12-03T10:35:13.000Z</time>
      </trkpt>
      <trkpt lat="44.01989" lon="6.02565">
        <ele>831.20001220703</ele>
        <time>2017-12-03T10:35:25.000Z</time>
      </trkpt>
      <trkpt lat="44.01985" lon="6.02577">
        <ele>830.20001220703</ele>
        <time>2017-12-03T10:35:36.000Z</time>
      </trkpt>
      <trkpt lat="44.01977" lon="6.02595">
        <ele>827.40002441406</ele>
        <time>2017-12-03T10:35:50.000Z</time>
      </trkpt>
      <trkpt lat="44.01967" lon="6.02619">
        <ele>822.40002441406</ele>
        <time>2017-12-03T10:36:08.000Z</time>
      </trkpt>
      <trkpt lat="44.01954" lon="6.02645">
        <ele>819.59997558594</ele>
        <time>2017-12-03T10:36:27.000Z</time>
      </trkpt>
      <trkpt lat="44.01945" lon="6.02667">
        <ele>817.20001220703</ele>
        <time>2017-12-03T10:36:44.000Z</time>
      </trkpt>
      <trkpt lat="44.01937" lon="6.02691">
        <ele>813.79998779297</ele>
        <time>2017-12-03T10:37:01.000Z</time>
      </trkpt>
      <trkpt lat="44.01935" lon="6.02696">
        <ele>812.79998779297</ele>
        <time>2017-12-03T10:37:07.000Z</time>
      </trkpt>
      <trkpt lat="44.01933" lon="6.02701">
        <ele>812.20001220703</ele>
        <time>2017-12-03T10:37:10.000Z</time>
      </trkpt>
      <trkpt lat="44.01933" lon="6.02704">
        <ele>812</ele>
        <time>2017-12-03T10:37:12.000Z</time>
      </trkpt>
      <trkpt lat="44.01921" lon="6.02723">
        <ele>808.20001220703</ele>
        <time>2017-12-03T10:37:31.000Z</time>
      </trkpt>
      <trkpt lat="44.01916" lon="6.02725">
        <ele>810.79998779297</ele>
        <time>2017-12-03T10:37:48.000Z</time>
      </trkpt>
      <trkpt lat="44.01915" lon="6.02723">
        <ele>815.79998779297</ele>
        <time>2017-12-03T10:38:21.000Z</time>
      </trkpt>
      <trkpt lat="44.01914" lon="6.02721">
        <ele>816.79998779297</ele>
        <time>2017-12-03T10:38:46.000Z</time>
      </trkpt>
      <trkpt lat="44.0191" lon="6.0273">
        <ele>816.59997558594</ele>
        <time>2017-12-03T10:39:06.000Z</time>
      </trkpt>
      <trkpt lat="44.01896" lon="6.02743">
        <ele>815.79998779297</ele>
        <time>2017-12-03T10:39:23.000Z</time>
      </trkpt>
      <trkpt lat="44.01875" lon="6.02759">
        <ele>814</ele>
        <time>2017-12-03T10:39:45.000Z</time>
      </trkpt>
      <trkpt lat="44.01865" lon="6.02762">
        <ele>813</ele>
        <time>2017-12-03T10:39:53.000Z</time>
      </trkpt>
      <trkpt lat="44.01844" lon="6.02768">
        <ele>811</ele>
        <time>2017-12-03T10:40:12.000Z</time>
      </trkpt>
      <trkpt lat="44.01823" lon="6.02772">
        <ele>806.40002441406</ele>
        <time>2017-12-03T10:40:33.000Z</time>
      </trkpt>
      <trkpt lat="44.01804" lon="6.02776">
        <ele>804.79998779297</ele>
        <time>2017-12-03T10:40:50.000Z</time>
      </trkpt>
      <trkpt lat="44.01784" lon="6.02785">
        <ele>805</ele>
        <time>2017-12-03T10:41:07.000Z</time>
      </trkpt>
      <trkpt lat="44.01766" lon="6.02801">
        <ele>807.59997558594</ele>
        <time>2017-12-03T10:41:25.000Z</time>
      </trkpt>
      <trkpt lat="44.01749" lon="6.02817">
        <ele>810</ele>
        <time>2017-12-03T10:41:43.000Z</time>
      </trkpt>
      <trkpt lat="44.01731" lon="6.02828">
        <ele>810.79998779297</ele>
        <time>2017-12-03T10:42:01.000Z</time>
      </trkpt>
      <trkpt lat="44.01717" lon="6.02836">
        <ele>810.59997558594</ele>
        <time>2017-12-03T10:42:15.000Z</time>
      </trkpt>
      <trkpt lat="44.01695" lon="6.02846">
        <ele>810.20001220703</ele>
        <time>2017-12-03T10:42:34.000Z</time>
      </trkpt>
      <trkpt lat="44.01694" lon="6.02847">
        <ele>810.40002441406</ele>
        <time>2017-12-03T10:42:35.000Z</time>
      </trkpt>
      <trkpt lat="44.01686" lon="6.02852">
        <ele>811</ele>
        <time>2017-12-03T10:42:49.000Z</time>
      </trkpt>
      <trkpt lat="44.0167" lon="6.02865">
        <ele>810.59997558594</ele>
        <time>2017-12-03T10:43:07.000Z</time>
      </trkpt>
      <trkpt lat="44.01653" lon="6.02886">
        <ele>806</ele>
        <time>2017-12-03T10:43:29.000Z</time>
      </trkpt>
      <trkpt lat="44.01644" lon="6.02906">
        <ele>802.79998779297</ele>
        <time>2017-12-03T10:43:45.000Z</time>
      </trkpt>
      <trkpt lat="44.01633" lon="6.0293">
        <ele>800.79998779297</ele>
        <time>2017-12-03T10:44:02.000Z</time>
      </trkpt>
      <trkpt lat="44.01619" lon="6.0295">
        <ele>799</ele>
        <time>2017-12-03T10:44:20.000Z</time>
      </trkpt>
      <trkpt lat="44.01605" lon="6.02972">
        <ele>796.59997558594</ele>
        <time>2017-12-03T10:44:39.000Z</time>
      </trkpt>
      <trkpt lat="44.01589" lon="6.02993">
        <ele>796.40002441406</ele>
        <time>2017-12-03T10:44:59.000Z</time>
      </trkpt>
      <trkpt lat="44.01571" lon="6.03012">
        <ele>795.79998779297</ele>
        <time>2017-12-03T10:45:18.000Z</time>
      </trkpt>
      <trkpt lat="44.01555" lon="6.03022">
        <ele>795.40002441406</ele>
        <time>2017-12-03T10:45:34.000Z</time>
      </trkpt>
      <trkpt lat="44.01538" lon="6.03025">
        <ele>799</ele>
        <time>2017-12-03T10:45:51.000Z</time>
      </trkpt>
      <trkpt lat="44.01529" lon="6.03023">
        <ele>800</ele>
        <time>2017-12-03T10:46:02.000Z</time>
      </trkpt>
      <trkpt lat="44.01516" lon="6.03017">
        <ele>803.40002441406</ele>
        <time>2017-12-03T10:46:29.000Z</time>
      </trkpt>
      <trkpt lat="44.01508" lon="6.03014">
        <ele>805.20001220703</ele>
        <time>2017-12-03T10:46:57.000Z</time>
      </trkpt>
      <trkpt lat="44.01497" lon="6.03022">
        <ele>803.40002441406</ele>
        <time>2017-12-03T10:47:11.000Z</time>
      </trkpt>
      <trkpt lat="44.01486" lon="6.03041">
        <ele>803.79998779297</ele>
        <time>2017-12-03T10:47:32.000Z</time>
      </trkpt>
      <trkpt lat="44.01493" lon="6.03056">
        <ele>804</ele>
        <time>2017-12-03T10:47:54.000Z</time>
      </trkpt>
      <trkpt lat="44.01506" lon="6.03065">
        <ele>803.20001220703</ele>
        <time>2017-12-03T10:48:11.000Z</time>
      </trkpt>
      <trkpt lat="44.01504" lon="6.03075">
        <ele>802.40002441406</ele>
        <time>2017-12-03T10:48:17.000Z</time>
      </trkpt>
      <trkpt lat="44.01493" lon="6.03101">
        <ele>801.79998779297</ele>
        <time>2017-12-03T10:48:36.000Z</time>
      </trkpt>
      <trkpt lat="44.0149" lon="6.03117">
        <ele>800.59997558594</ele>
        <time>2017-12-03T10:48:47.000Z</time>
      </trkpt>
      <trkpt lat="44.01488" lon="6.03146">
        <ele>798.79998779297</ele>
        <time>2017-12-03T10:49:06.000Z</time>
      </trkpt>
      <trkpt lat="44.0149" lon="6.03173">
        <ele>799.79998779297</ele>
        <time>2017-12-03T10:49:26.000Z</time>
      </trkpt>
      <trkpt lat="44.01499" lon="6.03209">
        <ele>801.59997558594</ele>
        <time>2017-12-03T10:49:55.000Z</time>
      </trkpt>
      <trkpt lat="44.01504" lon="6.03227">
        <ele>803.79998779297</ele>
        <time>2017-12-03T10:50:17.000Z</time>
      </trkpt>
      <trkpt lat="44.01503" lon="6.03237">
        <ele>805</ele>
        <time>2017-12-03T10:50:43.000Z</time>
      </trkpt>
      <trkpt lat="44.015" lon="6.03254">
        <ele>805.59997558594</ele>
        <time>2017-12-03T10:50:59.000Z</time>
      </trkpt>
      <trkpt lat="44.01498" lon="6.03262">
        <ele>806.59997558594</ele>
        <time>2017-12-03T10:51:05.000Z</time>
      </trkpt>
      <trkpt lat="44.01488" lon="6.03276">
        <ele>807.79998779297</ele>
        <time>2017-12-03T10:51:20.000Z</time>
      </trkpt>
      <trkpt lat="44.01483" lon="6.03279">
        <ele>808.40002441406</ele>
        <time>2017-12-03T10:51:34.000Z</time>
      </trkpt>
      <trkpt lat="44.01477" lon="6.03284">
        <ele>808.79998779297</ele>
        <time>2017-12-03T10:51:47.000Z</time>
      </trkpt>
      <trkpt lat="44.01474" lon="6.03287">
        <ele>808.40002441406</ele>
        <time>2017-12-03T10:51:51.000Z</time>
      </trkpt>
      <trkpt lat="44.01459" lon="6.03298">
        <ele>807.20001220703</ele>
        <time>2017-12-03T10:52:09.000Z</time>
      </trkpt>
      <trkpt lat="44.01436" lon="6.03311">
        <ele>804.20001220703</ele>
        <time>2017-12-03T10:52:32.000Z</time>
      </trkpt>
      <trkpt lat="44.01419" lon="6.03321">
        <ele>800.20001220703</ele>
        <time>2017-12-03T10:52:50.000Z</time>
      </trkpt>
      <trkpt lat="44.01402" lon="6.03336">
        <ele>794</ele>
        <time>2017-12-03T10:53:11.000Z</time>
      </trkpt>
      <trkpt lat="44.01385" lon="6.03351">
        <ele>788.79998779297</ele>
        <time>2017-12-03T10:53:30.000Z</time>
      </trkpt>
      <trkpt lat="44.01375" lon="6.03363">
        <ele>785.79998779297</ele>
        <time>2017-12-03T10:53:44.000Z</time>
      </trkpt>
      <trkpt lat="44.01359" lon="6.0338">
        <ele>783.40002441406</ele>
        <time>2017-12-03T10:54:03.000Z</time>
      </trkpt>
      <trkpt lat="44.01343" lon="6.03392">
        <ele>783.20001220703</ele>
        <time>2017-12-03T10:54:20.000Z</time>
      </trkpt>
      <trkpt lat="44.01328" lon="6.03404">
        <ele>782.40002441406</ele>
        <time>2017-12-03T10:54:36.000Z</time>
      </trkpt>
      <trkpt lat="44.01311" lon="6.03416">
        <ele>784.40002441406</ele>
        <time>2017-12-03T10:54:53.000Z</time>
      </trkpt>
      <trkpt lat="44.01292" lon="6.03427">
        <ele>785</ele>
        <time>2017-12-03T10:55:11.000Z</time>
      </trkpt>
      <trkpt lat="44.01273" lon="6.03432">
        <ele>789.59997558594</ele>
        <time>2017-12-03T10:55:27.000Z</time>
      </trkpt>
      <trkpt lat="44.01272" lon="6.03432">
        <ele>790.40002441406</ele>
        <time>2017-12-03T10:55:28.000Z</time>
      </trkpt>
      <trkpt lat="44.01263" lon="6.03429">
        <ele>791.59997558594</ele>
        <time>2017-12-03T10:55:41.000Z</time>
      </trkpt>
      <trkpt lat="44.01249" lon="6.03432">
        <ele>793.59997558594</ele>
        <time>2017-12-03T10:55:57.000Z</time>
      </trkpt>
      <trkpt lat="44.01235" lon="6.03447">
        <ele>792</ele>
        <time>2017-12-03T10:56:20.000Z</time>
      </trkpt>
      <trkpt lat="44.01226" lon="6.03471">
        <ele>790.59997558594</ele>
        <time>2017-12-03T10:56:45.000Z</time>
      </trkpt>
      <trkpt lat="44.01211" lon="6.03487">
        <ele>789.40002441406</ele>
        <time>2017-12-03T10:57:05.000Z</time>
      </trkpt>
      <trkpt lat="44.01208" lon="6.03499">
        <ele>788.79998779297</ele>
        <time>2017-12-03T10:57:24.000Z</time>
      </trkpt>
      <trkpt lat="44.0121" lon="6.03488">
        <ele>790.59997558594</ele>
        <time>2017-12-03T10:57:46.000Z</time>
      </trkpt>
      <trkpt lat="44.01215" lon="6.03468">
        <ele>791.40002441406</ele>
        <time>2017-12-03T10:58:04.000Z</time>
      </trkpt>
      <trkpt lat="44.01218" lon="6.03456">
        <ele>790.40002441406</ele>
        <time>2017-12-03T10:58:19.000Z</time>
      </trkpt>
      <trkpt lat="44.01222" lon="6.03447">
        <ele>789</ele>
        <time>2017-12-03T10:58:35.000Z</time>
      </trkpt>
      <trkpt lat="44.01231" lon="6.03451">
        <ele>791.20001220703</ele>
        <time>2017-12-03T10:58:57.000Z</time>
      </trkpt>
      <trkpt lat="44.01243" lon="6.03443">
        <ele>791.59997558594</ele>
        <time>2017-12-03T10:59:13.000Z</time>
      </trkpt>
      <trkpt lat="44.01248" lon="6.0344">
        <ele>791.59997558594</ele>
        <time>2017-12-03T10:59:27.000Z</time>
      </trkpt>
      <trkpt lat="44.0125" lon="6.03439">
        <ele>791.79998779297</ele>
        <time>2017-12-03T10:59:29.000Z</time>
      </trkpt>
      <trkpt lat="44.01259" lon="6.03436">
        <ele>791.79998779297</ele>
        <time>2017-12-03T10:59:38.000Z</time>
      </trkpt>
      <trkpt lat="44.01283" lon="6.03432">
        <ele>791</ele>
        <time>2017-12-03T10:59:57.000Z</time>
      </trkpt>
      <trkpt lat="44.01304" lon="6.03422">
        <ele>788.20001220703</ele>
        <time>2017-12-03T11:00:15.000Z</time>
      </trkpt>
      <trkpt lat="44.01321" lon="6.03408">
        <ele>789</ele>
        <time>2017-12-03T11:00:29.000Z</time>
      </trkpt>
      <trkpt lat="44.01335" lon="6.03399">
        <ele>791.59997558594</ele>
        <time>2017-12-03T11:00:43.000Z</time>
      </trkpt>
      <trkpt lat="44.01344" lon="6.03392">
        <ele>794.40002441406</ele>
        <time>2017-12-03T11:00:57.000Z</time>
      </trkpt>
      <trkpt lat="44.01342" lon="6.03387">
        <ele>796</ele>
        <time>2017-12-03T11:01:30.000Z</time>
      </trkpt>
      <trkpt lat="44.01346" lon="6.03386">
        <ele>796.20001220703</ele>
        <time>2017-12-03T11:02:00.000Z</time>
      </trkpt>
      <trkpt lat="44.01352" lon="6.03383">
        <ele>796.40002441406</ele>
        <time>2017-12-03T11:02:06.000Z</time>
      </trkpt>
      <trkpt lat="44.01367" lon="6.0337">
        <ele>797.40002441406</ele>
        <time>2017-12-03T11:02:23.000Z</time>
      </trkpt>
      <trkpt lat="44.01379" lon="6.0336">
        <ele>798.79998779297</ele>
        <time>2017-12-03T11:02:41.000Z</time>
      </trkpt>
      <trkpt lat="44.01392" lon="6.03345">
        <ele>800.59997558594</ele>
        <time>2017-12-03T11:02:59.000Z</time>
      </trkpt>
      <trkpt lat="44.01408" lon="6.03331">
        <ele>804.79998779297</ele>
        <time>2017-12-03T11:03:17.000Z</time>
      </trkpt>
      <trkpt lat="44.01429" lon="6.03319">
        <ele>809.79998779297</ele>
        <time>2017-12-03T11:03:38.000Z</time>
      </trkpt>
      <trkpt lat="44.0144" lon="6.0331">
        <ele>810</ele>
        <time>2017-12-03T11:03:55.000Z</time>
      </trkpt>
      <trkpt lat="44.01459" lon="6.03299">
        <ele>810.79998779297</ele>
        <time>2017-12-03T11:04:14.000Z</time>
      </trkpt>
      <trkpt lat="44.01473" lon="6.03289">
        <ele>812.59997558594</ele>
        <time>2017-12-03T11:04:31.000Z</time>
      </trkpt>
      <trkpt lat="44.0149" lon="6.03275">
        <ele>814.20001220703</ele>
        <time>2017-12-03T11:04:49.000Z</time>
      </trkpt>
      <trkpt lat="44.01495" lon="6.03262">
        <ele>814</ele>
        <time>2017-12-03T11:05:04.000Z</time>
      </trkpt>
      <trkpt lat="44.01491" lon="6.03253">
        <ele>814.20001220703</ele>
        <time>2017-12-03T11:05:12.000Z</time>
      </trkpt>
      <trkpt lat="44.01485" lon="6.03237">
        <ele>815</ele>
        <time>2017-12-03T11:05:27.000Z</time>
      </trkpt>
      <trkpt lat="44.01479" lon="6.0323">
        <ele>815</ele>
        <time>2017-12-03T11:05:54.000Z</time>
      </trkpt>
      <trkpt lat="44.01481" lon="6.03227">
        <ele>814.59997558594</ele>
        <time>2017-12-03T11:06:17.000Z</time>
      </trkpt>
      <trkpt lat="44.0149" lon="6.03241">
        <ele>814.20001220703</ele>
        <time>2017-12-03T11:06:32.000Z</time>
      </trkpt>
      <trkpt lat="44.01492" lon="6.03245">
        <ele>813.79998779297</ele>
        <time>2017-12-03T11:06:36.000Z</time>
      </trkpt>
      <trkpt lat="44.01498" lon="6.03249">
        <ele>813.40002441406</ele>
        <time>2017-12-03T11:06:45.000Z</time>
      </trkpt>
      <trkpt lat="44.01513" lon="6.0324">
        <ele>812.79998779297</ele>
        <time>2017-12-03T11:07:03.000Z</time>
      </trkpt>
      <trkpt lat="44.01533" lon="6.03232">
        <ele>812</ele>
        <time>2017-12-03T11:07:23.000Z</time>
      </trkpt>
      <trkpt lat="44.01542" lon="6.03242">
        <ele>810.40002441406</ele>
        <time>2017-12-03T11:07:45.000Z</time>
      </trkpt>
      <trkpt lat="44.01557" lon="6.03258">
        <ele>809.59997558594</ele>
        <time>2017-12-03T11:08:08.000Z</time>
      </trkpt>
      <trkpt lat="44.01564" lon="6.03268">
        <ele>809.59997558594</ele>
        <time>2017-12-03T11:08:17.000Z</time>
      </trkpt>
      <trkpt lat="44.01569" lon="6.03292">
        <ele>809.59997558594</ele>
        <time>2017-12-03T11:08:35.000Z</time>
      </trkpt>
      <trkpt lat="44.01565" lon="6.03305">
        <ele>809.59997558594</ele>
        <time>2017-12-03T11:08:52.000Z</time>
      </trkpt>
      <trkpt lat="44.01565" lon="6.03312">
        <ele>809.79998779297</ele>
        <time>2017-12-03T11:09:35.000Z</time>
      </trkpt>
      <trkpt lat="44.01568" lon="6.03317">
        <ele>810</ele>
        <time>2017-12-03T11:10:05.000Z</time>
      </trkpt>
      <trkpt lat="44.01569" lon="6.03315">
        <ele>809.79998779297</ele>
        <time>2017-12-03T11:10:25.000Z</time>
      </trkpt>
      <trkpt lat="44.01568" lon="6.03313">
        <ele>810.59997558594</ele>
        <time>2017-12-03T11:10:44.000Z</time>
      </trkpt>
      <trkpt lat="44.01569" lon="6.03313">
        <ele>810.79998779297</ele>
        <time>2017-12-03T11:11:07.000Z</time>
      </trkpt>
      <trkpt lat="44.01568" lon="6.0331">
        <ele>810.40002441406</ele>
        <time>2017-12-03T11:11:33.000Z</time>
      </trkpt>
      <trkpt lat="44.01564" lon="6.03309">
        <ele>808</ele>
        <time>2017-12-03T11:12:07.000Z</time>
      </trkpt>
      <trkpt lat="44.01559" lon="6.03306">
        <ele>807.79998779297</ele>
        <time>2017-12-03T11:12:48.000Z</time>
      </trkpt>
      <trkpt lat="44.01554" lon="6.033">
        <ele>808</ele>
        <time>2017-12-03T11:13:08.000Z</time>
      </trkpt>
      <trkpt lat="44.01551" lon="6.03292">
        <ele>807</ele>
        <time>2017-12-03T11:13:30.000Z</time>
      </trkpt>
      <trkpt lat="44.01555" lon="6.03293">
        <ele>806.79998779297</ele>
        <time>2017-12-03T11:14:02.000Z</time>
      </trkpt>
      <trkpt lat="44.01555" lon="6.03293">
        <ele>807.79998779297</ele>
        <time>2017-12-03T11:14:17.000Z</time>
      </trkpt>
      <trkpt lat="44.01552" lon="6.03279">
        <ele>807</ele>
        <time>2017-12-03T11:14:32.000Z</time>
      </trkpt>
      <trkpt lat="44.01546" lon="6.03257">
        <ele>807</ele>
        <time>2017-12-03T11:14:56.000Z</time>
      </trkpt>
      <trkpt lat="44.01532" lon="6.03238">
        <ele>806.59997558594</ele>
        <time>2017-12-03T11:15:21.000Z</time>
      </trkpt>
      <trkpt lat="44.01522" lon="6.03221">
        <ele>806.59997558594</ele>
        <time>2017-12-03T11:15:42.000Z</time>
      </trkpt>
      <trkpt lat="44.01539" lon="6.03217">
        <ele>805.79998779297</ele>
        <time>2017-12-03T11:16:07.000Z</time>
      </trkpt>
      <trkpt lat="44.01534" lon="6.03223">
        <ele>804.59997558594</ele>
        <time>2017-12-03T11:16:31.000Z</time>
      </trkpt>
      <trkpt lat="44.01533" lon="6.0322">
        <ele>804.79998779297</ele>
        <time>2017-12-03T11:16:32.000Z</time>
      </trkpt>
      <trkpt lat="44.01545" lon="6.03223">
        <ele>805.59997558594</ele>
        <time>2017-12-03T11:17:00.000Z</time>
      </trkpt>
      <trkpt lat="44.01566" lon="6.03243">
        <ele>804.40002441406</ele>
        <time>2017-12-03T11:17:31.000Z</time>
      </trkpt>
      <trkpt lat="44.01577" lon="6.03267">
        <ele>802.40002441406</ele>
        <time>2017-12-03T11:17:56.000Z</time>
      </trkpt>
      <trkpt lat="44.01587" lon="6.0329">
        <ele>798.59997558594</ele>
        <time>2017-12-03T11:18:26.000Z</time>
      </trkpt>
      <trkpt lat="44.01614" lon="6.03312">
        <ele>796</ele>
        <time>2017-12-03T11:18:55.000Z</time>
      </trkpt>
      <trkpt lat="44.0163" lon="6.03326">
        <ele>793.79998779297</ele>
        <time>2017-12-03T11:19:22.000Z</time>
      </trkpt>
      <trkpt lat="44.01657" lon="6.03345">
        <ele>799</ele>
        <time>2017-12-03T11:19:49.000Z</time>
      </trkpt>
      <trkpt lat="44.01668" lon="6.03377">
        <ele>800.20001220703</ele>
        <time>2017-12-03T11:20:13.000Z</time>
      </trkpt>
      <trkpt lat="44.01653" lon="6.03409">
        <ele>799.59997558594</ele>
        <time>2017-12-03T11:20:40.000Z</time>
      </trkpt>
      <trkpt lat="44.01636" lon="6.03428">
        <ele>798.59997558594</ele>
        <time>2017-12-03T11:21:07.000Z</time>
      </trkpt>
      <trkpt lat="44.01623" lon="6.03451">
        <ele>798.79998779297</ele>
        <time>2017-12-03T11:21:33.000Z</time>
      </trkpt>
      <trkpt lat="44.01609" lon="6.03487">
        <ele>799.40002441406</ele>
        <time>2017-12-03T11:22:03.000Z</time>
      </trkpt>
      <trkpt lat="44.01598" lon="6.03527">
        <ele>800</ele>
        <time>2017-12-03T11:22:34.000Z</time>
      </trkpt>
      <trkpt lat="44.01605" lon="6.03557">
        <ele>801.59997558594</ele>
        <time>2017-12-03T11:22:59.000Z</time>
      </trkpt>
      <trkpt lat="44.01614" lon="6.0359">
        <ele>800.79998779297</ele>
        <time>2017-12-03T11:23:25.000Z</time>
      </trkpt>
      <trkpt lat="44.01617" lon="6.03614">
        <ele>801.59997558594</ele>
        <time>2017-12-03T11:23:41.000Z</time>
      </trkpt>
      <trkpt lat="44.01602" lon="6.03605">
        <ele>805.59997558594</ele>
        <time>2017-12-03T11:24:04.000Z</time>
      </trkpt>
      <trkpt lat="44.01613" lon="6.03611">
        <ele>807.20001220703</ele>
        <time>2017-12-03T11:24:21.000Z</time>
      </trkpt>
      <trkpt lat="44.01631" lon="6.03632">
        <ele>807.40002441406</ele>
        <time>2017-12-03T11:24:45.000Z</time>
      </trkpt>
      <trkpt lat="44.01643" lon="6.03654">
        <ele>814.40002441406</ele>
        <time>2017-12-03T11:25:06.000Z</time>
      </trkpt>
      <trkpt lat="44.01653" lon="6.03667">
        <ele>818</ele>
        <time>2017-12-03T11:25:19.000Z</time>
      </trkpt>
      <trkpt lat="44.01655" lon="6.03688">
        <ele>820.20001220703</ele>
        <time>2017-12-03T11:25:38.000Z</time>
      </trkpt>
      <trkpt lat="44.01655" lon="6.03702">
        <ele>820</ele>
        <time>2017-12-03T11:26:00.000Z</time>
      </trkpt>
      <trkpt lat="44.01651" lon="6.03737">
        <ele>819.40002441406</ele>
        <time>2017-12-03T11:26:29.000Z</time>
      </trkpt>
      <trkpt lat="44.01642" lon="6.03774">
        <ele>818</ele>
        <time>2017-12-03T11:26:57.000Z</time>
      </trkpt>
      <trkpt lat="44.01633" lon="6.03808">
        <ele>816.20001220703</ele>
        <time>2017-12-03T11:27:23.000Z</time>
      </trkpt>
      <trkpt lat="44.01636" lon="6.03834">
        <ele>813.40002441406</ele>
        <time>2017-12-03T11:27:49.000Z</time>
      </trkpt>
      <trkpt lat="44.01649" lon="6.0386">
        <ele>806.20001220703</ele>
        <time>2017-12-03T11:28:22.000Z</time>
      </trkpt>
      <trkpt lat="44.01668" lon="6.03886">
        <ele>796.20001220703</ele>
        <time>2017-12-03T11:28:52.000Z</time>
      </trkpt>
      <trkpt lat="44.01691" lon="6.03922">
        <ele>784.40002441406</ele>
        <time>2017-12-03T11:29:20.000Z</time>
      </trkpt>
      <trkpt lat="44.01713" lon="6.03944">
        <ele>775.40002441406</ele>
        <time>2017-12-03T11:29:48.000Z</time>
      </trkpt>
      <trkpt lat="44.0173" lon="6.03953">
        <ele>761.59997558594</ele>
        <time>2017-12-03T11:30:17.000Z</time>
      </trkpt>
      <trkpt lat="44.0175" lon="6.0396">
        <ele>750.79998779297</ele>
        <time>2017-12-03T11:30:44.000Z</time>
      </trkpt>
      <trkpt lat="44.01772" lon="6.03963">
        <ele>741.20001220703</ele>
        <time>2017-12-03T11:31:07.000Z</time>
      </trkpt>
      <trkpt lat="44.01793" lon="6.03972">
        <ele>735</ele>
        <time>2017-12-03T11:31:30.000Z</time>
      </trkpt>
      <trkpt lat="44.0182" lon="6.03981">
        <ele>730.40002441406</ele>
        <time>2017-12-03T11:31:52.000Z</time>
      </trkpt>
      <trkpt lat="44.01841" lon="6.03998">
        <ele>724.59997558594</ele>
        <time>2017-12-03T11:32:17.000Z</time>
      </trkpt>
      <trkpt lat="44.01871" lon="6.04018">
        <ele>726.59997558594</ele>
        <time>2017-12-03T11:32:43.000Z</time>
      </trkpt>
      <trkpt lat="44.01875" lon="6.04022">
        <ele>727.79998779297</ele>
        <time>2017-12-03T11:32:47.000Z</time>
      </trkpt>
      <trkpt lat="44.01898" lon="6.04082">
        <ele>755.40002441406</ele>
        <time>2017-12-03T11:33:17.000Z</time>
      </trkpt>
      <trkpt lat="44.01903" lon="6.04084">
        <ele>756.79998779297</ele>
        <time>2017-12-03T11:33:25.000Z</time>
      </trkpt>
      <trkpt lat="44.01916" lon="6.04091">
        <ele>757</ele>
        <time>2017-12-03T11:33:40.000Z</time>
      </trkpt>
      <trkpt lat="44.0193" lon="6.04104">
        <ele>758.79998779297</ele>
        <time>2017-12-03T11:34:01.000Z</time>
      </trkpt>
      <trkpt lat="44.01941" lon="6.04115">
        <ele>760.20001220703</ele>
        <time>2017-12-03T11:34:23.000Z</time>
      </trkpt>
      <trkpt lat="44.0195" lon="6.04119">
        <ele>761.40002441406</ele>
        <time>2017-12-03T11:34:39.000Z</time>
      </trkpt>
      <trkpt lat="44.01951" lon="6.04122">
        <ele>761.79998779297</ele>
        <time>2017-12-03T11:34:44.000Z</time>
      </trkpt>
      <trkpt lat="44.01958" lon="6.04128">
        <ele>765</ele>
        <time>2017-12-03T11:35:14.000Z</time>
      </trkpt>
      <trkpt lat="44.0196" lon="6.04121">
        <ele>766.20001220703</ele>
        <time>2017-12-03T11:36:01.000Z</time>
      </trkpt>
      <trkpt lat="44.01961" lon="6.04118">
        <ele>766</ele>
        <time>2017-12-03T11:36:55.000Z</time>
      </trkpt>
      <trkpt lat="44.01962" lon="6.0412">
        <ele>766</ele>
        <time>2017-12-03T11:37:29.000Z</time>
      </trkpt>
      <trkpt lat="44.01962" lon="6.04118">
        <ele>766.59997558594</ele>
        <time>2017-12-03T11:38:31.000Z</time>
      </trkpt>
      <trkpt lat="44.01964" lon="6.04119">
        <ele>765.59997558594</ele>
        <time>2017-12-03T11:39:08.000Z</time>
      </trkpt>
      <trkpt lat="44.01963" lon="6.04119">
        <ele>765.59997558594</ele>
        <time>2017-12-03T11:40:10.000Z</time>
      </trkpt>
      <trkpt lat="44.01962" lon="6.04119">
        <ele>767.79998779297</ele>
        <time>2017-12-03T11:40:38.000Z</time>
      </trkpt>
      <trkpt lat="44.01963" lon="6.04119">
        <ele>764.79998779297</ele>
        <time>2017-12-03T11:41:26.000Z</time>
      </trkpt>
      <trkpt lat="44.01964" lon="6.04116">
        <ele>764.20001220703</ele>
        <time>2017-12-03T11:41:57.000Z</time>
      </trkpt>
      <trkpt lat="44.01964" lon="6.04119">
        <ele>764.59997558594</ele>
        <time>2017-12-03T11:42:21.000Z</time>
      </trkpt>
      <trkpt lat="44.01966" lon="6.04118">
        <ele>763</ele>
        <time>2017-12-03T11:42:59.000Z</time>
      </trkpt>
      <trkpt lat="44.01962" lon="6.04113">
        <ele>762.79998779297</ele>
        <time>2017-12-03T11:43:20.000Z</time>
      </trkpt>
      <trkpt lat="44.01961" lon="6.04116">
        <ele>763.20001220703</ele>
        <time>2017-12-03T11:43:42.000Z</time>
      </trkpt>
      <trkpt lat="44.0196" lon="6.04112">
        <ele>763.40002441406</ele>
        <time>2017-12-03T11:44:18.000Z</time>
      </trkpt>
      <trkpt lat="44.01959" lon="6.0412">
        <ele>764.40002441406</ele>
        <time>2017-12-03T11:44:49.000Z</time>
      </trkpt>
      <trkpt lat="44.01963" lon="6.04121">
        <ele>763.59997558594</ele>
        <time>2017-12-03T11:45:18.000Z</time>
      </trkpt>
      <trkpt lat="44.01963" lon="6.0412">
        <ele>762.79998779297</ele>
        <time>2017-12-03T11:45:48.000Z</time>
      </trkpt>
      <trkpt lat="44.0196" lon="6.04115">
        <ele>762.40002441406</ele>
        <time>2017-12-03T11:47:01.000Z</time>
      </trkpt>
      <trkpt lat="44.0196" lon="6.04118">
        <ele>762</ele>
        <time>2017-12-03T11:47:18.000Z</time>
      </trkpt>
      <trkpt lat="44.01959" lon="6.04116">
        <ele>761.59997558594</ele>
        <time>2017-12-03T11:47:38.000Z</time>
      </trkpt>
      <trkpt lat="44.01959" lon="6.04115">
        <ele>761.79998779297</ele>
        <time>2017-12-03T11:48:00.000Z</time>
      </trkpt>
      <trkpt lat="44.0196" lon="6.04117">
        <ele>761.20001220703</ele>
        <time>2017-12-03T11:48:43.000Z</time>
      </trkpt>
      <trkpt lat="44.01961" lon="6.0412">
        <ele>761.40002441406</ele>
        <time>2017-12-03T11:49:15.000Z</time>
      </trkpt>
      <trkpt lat="44.01959" lon="6.04118">
        <ele>762.40002441406</ele>
        <time>2017-12-03T11:49:46.000Z</time>
      </trkpt>
      <trkpt lat="44.01956" lon="6.04115">
        <ele>765.20001220703</ele>
        <time>2017-12-03T11:50:25.000Z</time>
      </trkpt>
      <trkpt lat="44.01956" lon="6.04116">
        <ele>765.20001220703</ele>
        <time>2017-12-03T11:50:55.000Z</time>
      </trkpt>
      <trkpt lat="44.01959" lon="6.04118">
        <ele>765.20001220703</ele>
        <time>2017-12-03T11:51:17.000Z</time>
      </trkpt>
      <trkpt lat="44.01958" lon="6.04118">
        <ele>764.79998779297</ele>
        <time>2017-12-03T11:51:57.000Z</time>
      </trkpt>
      <trkpt lat="44.01962" lon="6.04118">
        <ele>764.79998779297</ele>
        <time>2017-12-03T11:52:28.000Z</time>
      </trkpt>
      <trkpt lat="44.01961" lon="6.04119">
        <ele>765.40002441406</ele>
        <time>2017-12-03T11:53:15.000Z</time>
      </trkpt>
      <trkpt lat="44.0196" lon="6.04117">
        <ele>764.59997558594</ele>
        <time>2017-12-03T11:54:09.000Z</time>
      </trkpt>
      <trkpt lat="44.01961" lon="6.04118">
        <ele>766.20001220703</ele>
        <time>2017-12-03T11:54:47.000Z</time>
      </trkpt>
      <trkpt lat="44.01959" lon="6.0412">
        <ele>765.20001220703</ele>
        <time>2017-12-03T11:55:27.000Z</time>
      </trkpt>
      <trkpt lat="44.01961" lon="6.04119">
        <ele>762.59997558594</ele>
        <time>2017-12-03T11:56:07.000Z</time>
      </trkpt>
      <trkpt lat="44.01961" lon="6.04119">
        <ele>762.20001220703</ele>
        <time>2017-12-03T11:56:41.000Z</time>
      </trkpt>
      <trkpt lat="44.01961" lon="6.04118">
        <ele>764.20001220703</ele>
        <time>2017-12-03T11:57:34.000Z</time>
      </trkpt>
      <trkpt lat="44.01958" lon="6.04121">
        <ele>763.40002441406</ele>
        <time>2017-12-03T11:57:59.000Z</time>
      </trkpt>
      <trkpt lat="44.0196" lon="6.0412">
        <ele>763.40002441406</ele>
        <time>2017-12-03T11:58:26.000Z</time>
      </trkpt>
      <trkpt lat="44.01957" lon="6.04118">
        <ele>764.20001220703</ele>
        <time>2017-12-03T11:58:52.000Z</time>
      </trkpt>
      <trkpt lat="44.01956" lon="6.04121">
        <ele>765.40002441406</ele>
        <time>2017-12-03T11:59:23.000Z</time>
      </trkpt>
      <trkpt lat="44.01954" lon="6.04122">
        <ele>766</ele>
        <time>2017-12-03T11:59:51.000Z</time>
      </trkpt>
      <trkpt lat="44.01956" lon="6.04121">
        <ele>764.79998779297</ele>
        <time>2017-12-03T12:00:36.000Z</time>
      </trkpt>
      <trkpt lat="44.01958" lon="6.04119">
        <ele>764.20001220703</ele>
        <time>2017-12-03T12:01:04.000Z</time>
      </trkpt>
      <trkpt lat="44.01958" lon="6.04123">
        <ele>765</ele>
        <time>2017-12-03T12:01:42.000Z</time>
      </trkpt>
      <trkpt lat="44.0196" lon="6.04122">
        <ele>764.40002441406</ele>
        <time>2017-12-03T12:02:36.000Z</time>
      </trkpt>
      <trkpt lat="44.01955" lon="6.04123">
        <ele>765.59997558594</ele>
        <time>2017-12-03T12:03:17.000Z</time>
      </trkpt>
      <trkpt lat="44.01958" lon="6.04122">
        <ele>763</ele>
        <time>2017-12-03T12:04:03.000Z</time>
      </trkpt>
      <trkpt lat="44.01959" lon="6.04121">
        <ele>762</ele>
        <time>2017-12-03T12:04:31.000Z</time>
      </trkpt>
      <trkpt lat="44.01961" lon="6.04119">
        <ele>762.20001220703</ele>
        <time>2017-12-03T12:05:00.000Z</time>
      </trkpt>
      <trkpt lat="44.01959" lon="6.0412">
        <ele>762</ele>
        <time>2017-12-03T12:05:56.000Z</time>
      </trkpt>
      <trkpt lat="44.01958" lon="6.04118">
        <ele>762.40002441406</ele>
        <time>2017-12-03T12:06:31.000Z</time>
      </trkpt>
      <trkpt lat="44.01959" lon="6.04121">
        <ele>762.59997558594</ele>
        <time>2017-12-03T12:07:24.000Z</time>
      </trkpt>
      <trkpt lat="44.01962" lon="6.0412">
        <ele>759.20001220703</ele>
        <time>2017-12-03T12:08:29.000Z</time>
      </trkpt>
      <trkpt lat="44.0196" lon="6.04122">
        <ele>760.59997558594</ele>
        <time>2017-12-03T12:08:56.000Z</time>
      </trkpt>
      <trkpt lat="44.01958" lon="6.04124">
        <ele>761</ele>
        <time>2017-12-03T12:09:31.000Z</time>
      </trkpt>
      <trkpt lat="44.01959" lon="6.04124">
        <ele>760.79998779297</ele>
        <time>2017-12-03T12:09:58.000Z</time>
      </trkpt>
      <trkpt lat="44.01958" lon="6.04125">
        <ele>761.40002441406</ele>
        <time>2017-12-03T12:10:42.000Z</time>
      </trkpt>
      <trkpt lat="44.01962" lon="6.04121">
        <ele>761</ele>
        <time>2017-12-03T12:11:24.000Z</time>
      </trkpt>
      <trkpt lat="44.01958" lon="6.04117">
        <ele>762</ele>
        <time>2017-12-03T12:12:25.000Z</time>
      </trkpt>
      <trkpt lat="44.01962" lon="6.04119">
        <ele>762.59997558594</ele>
        <time>2017-12-03T12:12:50.000Z</time>
      </trkpt>
      <trkpt lat="44.01962" lon="6.04121">
        <ele>762.59997558594</ele>
        <time>2017-12-03T12:13:14.000Z</time>
      </trkpt>
      <trkpt lat="44.0196" lon="6.04123">
        <ele>763.20001220703</ele>
        <time>2017-12-03T12:13:47.000Z</time>
      </trkpt>
      <trkpt lat="44.01968" lon="6.04125">
        <ele>765.20001220703</ele>
        <time>2017-12-03T12:14:23.000Z</time>
      </trkpt>
      <trkpt lat="44.0198" lon="6.04139">
        <ele>766</ele>
        <time>2017-12-03T12:14:45.000Z</time>
      </trkpt>
      <trkpt lat="44.01977" lon="6.0415">
        <ele>766.79998779297</ele>
        <time>2017-12-03T12:15:12.000Z</time>
      </trkpt>
      <trkpt lat="44.01973" lon="6.04152">
        <ele>765.79998779297</ele>
        <time>2017-12-03T12:15:42.000Z</time>
      </trkpt>
      <trkpt lat="44.01971" lon="6.04149">
        <ele>765.40002441406</ele>
        <time>2017-12-03T12:16:07.000Z</time>
      </trkpt>
      <trkpt lat="44.01971" lon="6.0415">
        <ele>764.59997558594</ele>
        <time>2017-12-03T12:16:18.000Z</time>
      </trkpt>
      <trkpt lat="44.01966" lon="6.04137">
        <ele>762</ele>
        <time>2017-12-03T12:16:35.000Z</time>
      </trkpt>
      <trkpt lat="44.01961" lon="6.04136">
        <ele>760.20001220703</ele>
        <time>2017-12-03T12:16:55.000Z</time>
      </trkpt>
      <trkpt lat="44.01958" lon="6.0414">
        <ele>760.40002441406</ele>
        <time>2017-12-03T12:17:44.000Z</time>
      </trkpt>
      <trkpt lat="44.01956" lon="6.04126">
        <ele>762.59997558594</ele>
        <time>2017-12-03T12:18:06.000Z</time>
      </trkpt>
      <trkpt lat="44.0196" lon="6.04125">
        <ele>763.40002441406</ele>
        <time>2017-12-03T12:19:04.000Z</time>
      </trkpt>
      <trkpt lat="44.01962" lon="6.04122">
        <ele>762.59997558594</ele>
        <time>2017-12-03T12:19:46.000Z</time>
      </trkpt>
      <trkpt lat="44.01961" lon="6.0412">
        <ele>762.20001220703</ele>
        <time>2017-12-03T12:20:43.000Z</time>
      </trkpt>
      <trkpt lat="44.01962" lon="6.04124">
        <ele>762.59997558594</ele>
        <time>2017-12-03T12:21:38.000Z</time>
      </trkpt>
      <trkpt lat="44.01957" lon="6.04123">
        <ele>762.40002441406</ele>
        <time>2017-12-03T12:22:38.000Z</time>
      </trkpt>
      <trkpt lat="44.01956" lon="6.04118">
        <ele>761.40002441406</ele>
        <time>2017-12-03T12:23:12.000Z</time>
      </trkpt>
      <trkpt lat="44.01949" lon="6.0411">
        <ele>762.20001220703</ele>
        <time>2017-12-03T12:23:33.000Z</time>
      </trkpt>
      <trkpt lat="44.0194" lon="6.04098">
        <ele>760.79998779297</ele>
        <time>2017-12-03T12:23:50.000Z</time>
      </trkpt>
      <trkpt lat="44.01937" lon="6.0409">
        <ele>759</ele>
        <time>2017-12-03T12:24:05.000Z</time>
      </trkpt>
      <trkpt lat="44.01949" lon="6.04091">
        <ele>757.40002441406</ele>
        <time>2017-12-03T12:24:25.000Z</time>
      </trkpt>
      <trkpt lat="44.01975" lon="6.04089">
        <ele>752.79998779297</ele>
        <time>2017-12-03T12:24:53.000Z</time>
      </trkpt>
      <trkpt lat="44.02006" lon="6.04096">
        <ele>743.20001220703</ele>
        <time>2017-12-03T12:25:23.000Z</time>
      </trkpt>
      <trkpt lat="44.02029" lon="6.04113">
        <ele>737</ele>
        <time>2017-12-03T12:25:48.000Z</time>
      </trkpt>
      <trkpt lat="44.02055" lon="6.04126">
        <ele>731.59997558594</ele>
        <time>2017-12-03T12:26:15.000Z</time>
      </trkpt>
      <trkpt lat="44.02085" lon="6.04134">
        <ele>727.20001220703</ele>
        <time>2017-12-03T12:26:43.000Z</time>
      </trkpt>
      <trkpt lat="44.02101" lon="6.04167">
        <ele>725.40002441406</ele>
        <time>2017-12-03T12:27:05.000Z</time>
      </trkpt>
      <trkpt lat="44.02101" lon="6.04169">
        <ele>725</ele>
        <time>2017-12-03T12:27:07.000Z</time>
      </trkpt>
      <trkpt lat="44.02087" lon="6.04193">
        <ele>721.20001220703</ele>
        <time>2017-12-03T12:27:32.000Z</time>
      </trkpt>
      <trkpt lat="44.02071" lon="6.04215">
        <ele>722.79998779297</ele>
        <time>2017-12-03T12:28:11.000Z</time>
      </trkpt>
      <trkpt lat="44.0205" lon="6.04238">
        <ele>722</ele>
        <time>2017-12-03T12:28:39.000Z</time>
      </trkpt>
      <trkpt lat="44.02046" lon="6.04244">
        <ele>721.59997558594</ele>
        <time>2017-12-03T12:28:44.000Z</time>
      </trkpt>
      <trkpt lat="44.02036" lon="6.04274">
        <ele>720.20001220703</ele>
        <time>2017-12-03T12:29:09.000Z</time>
      </trkpt>
      <trkpt lat="44.02035" lon="6.04295">
        <ele>719.40002441406</ele>
        <time>2017-12-03T12:29:23.000Z</time>
      </trkpt>
      <trkpt lat="44.02045" lon="6.04319">
        <ele>719</ele>
        <time>2017-12-03T12:29:45.000Z</time>
      </trkpt>
      <trkpt lat="44.02062" lon="6.04339">
        <ele>719</ele>
        <time>2017-12-03T12:30:09.000Z</time>
      </trkpt>
      <trkpt lat="44.02084" lon="6.04373">
        <ele>718.40002441406</ele>
        <time>2017-12-03T12:30:40.000Z</time>
      </trkpt>
      <trkpt lat="44.02101" lon="6.04399">
        <ele>717.20001220703</ele>
        <time>2017-12-03T12:31:02.000Z</time>
      </trkpt>
      <trkpt lat="44.02124" lon="6.04425">
        <ele>713.20001220703</ele>
        <time>2017-12-03T12:31:29.000Z</time>
      </trkpt>
      <trkpt lat="44.02142" lon="6.04453">
        <ele>709.40002441406</ele>
        <time>2017-12-03T12:31:52.000Z</time>
      </trkpt>
      <trkpt lat="44.0216" lon="6.04469">
        <ele>706.59997558594</ele>
        <time>2017-12-03T12:32:11.000Z</time>
      </trkpt>
      <trkpt lat="44.02178" lon="6.04483">
        <ele>705.20001220703</ele>
        <time>2017-12-03T12:32:30.000Z</time>
      </trkpt>
      <trkpt lat="44.02193" lon="6.04501">
        <ele>702.79998779297</ele>
        <time>2017-12-03T12:32:49.000Z</time>
      </trkpt>
      <trkpt lat="44.02208" lon="6.04515">
        <ele>701.59997558594</ele>
        <time>2017-12-03T12:33:06.000Z</time>
      </trkpt>
      <trkpt lat="44.02228" lon="6.04528">
        <ele>703</ele>
        <time>2017-12-03T12:33:25.000Z</time>
      </trkpt>
      <trkpt lat="44.02242" lon="6.04543">
        <ele>706.20001220703</ele>
        <time>2017-12-03T12:33:44.000Z</time>
      </trkpt>
      <trkpt lat="44.02252" lon="6.04555">
        <ele>707.79998779297</ele>
        <time>2017-12-03T12:34:06.000Z</time>
      </trkpt>
      <trkpt lat="44.02263" lon="6.04562">
        <ele>709.40002441406</ele>
        <time>2017-12-03T12:34:29.000Z</time>
      </trkpt>
      <trkpt lat="44.02283" lon="6.04571">
        <ele>709.20001220703</ele>
        <time>2017-12-03T12:34:53.000Z</time>
      </trkpt>
      <trkpt lat="44.02306" lon="6.04572">
        <ele>705</ele>
        <time>2017-12-03T12:35:21.000Z</time>
      </trkpt>
      <trkpt lat="44.02332" lon="6.04573">
        <ele>699</ele>
        <time>2017-12-03T12:35:48.000Z</time>
      </trkpt>
      <trkpt lat="44.02363" lon="6.04565">
        <ele>693.20001220703</ele>
        <time>2017-12-03T12:36:14.000Z</time>
      </trkpt>
      <trkpt lat="44.02369" lon="6.04568">
        <ele>692</ele>
        <time>2017-12-03T12:36:30.000Z</time>
      </trkpt>
      <trkpt lat="44.02373" lon="6.04569">
        <ele>692.40002441406</ele>
        <time>2017-12-03T12:36:36.000Z</time>
      </trkpt>
      <trkpt lat="44.02384" lon="6.0458">
        <ele>695.59997558594</ele>
        <time>2017-12-03T12:36:58.000Z</time>
      </trkpt>
      <trkpt lat="44.02388" lon="6.04581">
        <ele>695.79998779297</ele>
        <time>2017-12-03T12:37:03.000Z</time>
      </trkpt>
      <trkpt lat="44.02392" lon="6.04583">
        <ele>695.79998779297</ele>
        <time>2017-12-03T12:37:06.000Z</time>
      </trkpt>
      <trkpt lat="44.02398" lon="6.04584">
        <ele>695.40002441406</ele>
        <time>2017-12-03T12:37:12.000Z</time>
      </trkpt>
      <trkpt lat="44.02402" lon="6.04585">
        <ele>695.59997558594</ele>
        <time>2017-12-03T12:37:16.000Z</time>
      </trkpt>
      <trkpt lat="44.02414" lon="6.04594">
        <ele>695.59997558594</ele>
        <time>2017-12-03T12:37:34.000Z</time>
      </trkpt>
      <trkpt lat="44.02419" lon="6.04604">
        <ele>695.40002441406</ele>
        <time>2017-12-03T12:37:54.000Z</time>
      </trkpt>
      <trkpt lat="44.02433" lon="6.04605">
        <ele>693</ele>
        <time>2017-12-03T12:38:22.000Z</time>
      </trkpt>
      <trkpt lat="44.02459" lon="6.04617">
        <ele>687.20001220703</ele>
        <time>2017-12-03T12:38:49.000Z</time>
      </trkpt>
      <trkpt lat="44.0246" lon="6.04617">
        <ele>687.20001220703</ele>
        <time>2017-12-03T12:38:50.000Z</time>
      </trkpt>
      <trkpt lat="44.02473" lon="6.04614">
        <ele>685.40002441406</ele>
        <time>2017-12-03T12:39:08.000Z</time>
      </trkpt>
      <trkpt lat="44.02485" lon="6.04589">
        <ele>681.79998779297</ele>
        <time>2017-12-03T12:39:33.000Z</time>
      </trkpt>
      <trkpt lat="44.02516" lon="6.04567">
        <ele>679.59997558594</ele>
        <time>2017-12-03T12:39:58.000Z</time>
      </trkpt>
      <trkpt lat="44.02542" lon="6.04553">
        <ele>677.79998779297</ele>
        <time>2017-12-03T12:40:18.000Z</time>
      </trkpt>
      <trkpt lat="44.02559" lon="6.0454">
        <ele>675</ele>
        <time>2017-12-03T12:40:38.000Z</time>
      </trkpt>
      <trkpt lat="44.02585" lon="6.04534">
        <ele>673.79998779297</ele>
        <time>2017-12-03T12:40:56.000Z</time>
      </trkpt>
      <trkpt lat="44.02604" lon="6.04532">
        <ele>668.79998779297</ele>
        <time>2017-12-03T12:41:11.000Z</time>
      </trkpt>
      <trkpt lat="44.02626" lon="6.04536">
        <ele>661.79998779297</ele>
        <time>2017-12-03T12:41:33.000Z</time>
      </trkpt>
      <trkpt lat="44.02644" lon="6.04548">
        <ele>657</ele>
        <time>2017-12-03T12:41:54.000Z</time>
      </trkpt>
      <trkpt lat="44.02647" lon="6.04556">
        <ele>655.79998779297</ele>
        <time>2017-12-03T12:42:06.000Z</time>
      </trkpt>
      <trkpt lat="44.02668" lon="6.04563">
        <ele>656.40002441406</ele>
        <time>2017-12-03T12:42:25.000Z</time>
      </trkpt>
      <trkpt lat="44.02683" lon="6.04568">
        <ele>660.20001220703</ele>
        <time>2017-12-03T12:42:40.000Z</time>
      </trkpt>
      <trkpt lat="44.02684" lon="6.04568">
        <ele>660.40002441406</ele>
        <time>2017-12-03T12:42:41.000Z</time>
      </trkpt>
      <trkpt lat="44.02704" lon="6.04547">
        <ele>663.20001220703</ele>
        <time>2017-12-03T12:43:00.000Z</time>
      </trkpt>
      <trkpt lat="44.02712" lon="6.0452">
        <ele>663.20001220703</ele>
        <time>2017-12-03T12:43:20.000Z</time>
      </trkpt>
      <trkpt lat="44.02718" lon="6.04515">
        <ele>663.40002441406</ele>
        <time>2017-12-03T12:43:35.000Z</time>
      </trkpt>
      <trkpt lat="44.02728" lon="6.04519">
        <ele>663</ele>
        <time>2017-12-03T12:43:39.000Z</time>
      </trkpt>
      <trkpt lat="44.02747" lon="6.04525">
        <ele>661.40002441406</ele>
        <time>2017-12-03T12:43:57.000Z</time>
      </trkpt>
      <trkpt lat="44.02765" lon="6.04528">
        <ele>658.79998779297</ele>
        <time>2017-12-03T12:44:15.000Z</time>
      </trkpt>
      <trkpt lat="44.02771" lon="6.04531">
        <ele>659.59997558594</ele>
        <time>2017-12-03T12:44:34.000Z</time>
      </trkpt>
      <trkpt lat="44.02775" lon="6.04533">
        <ele>658.59997558594</ele>
        <time>2017-12-03T12:45:17.000Z</time>
      </trkpt>
      <trkpt lat="44.02788" lon="6.04544">
        <ele>656</ele>
        <time>2017-12-03T12:45:35.000Z</time>
      </trkpt>
      <trkpt lat="44.02789" lon="6.04545">
        <ele>655.20001220703</ele>
        <time>2017-12-03T12:45:46.000Z</time>
      </trkpt>
      <trkpt lat="44.02794" lon="6.04547">
        <ele>655</ele>
        <time>2017-12-03T12:45:51.000Z</time>
      </trkpt>
      <trkpt lat="44.0281" lon="6.04552">
        <ele>652.40002441406</ele>
        <time>2017-12-03T12:46:08.000Z</time>
      </trkpt>
      <trkpt lat="44.02831" lon="6.04565">
        <ele>649</ele>
        <time>2017-12-03T12:46:27.000Z</time>
      </trkpt>
      <trkpt lat="44.02846" lon="6.04578">
        <ele>648.40002441406</ele>
        <time>2017-12-03T12:46:42.000Z</time>
      </trkpt>
      <trkpt lat="44.02859" lon="6.04589">
        <ele>647.40002441406</ele>
        <time>2017-12-03T12:46:56.000Z</time>
      </trkpt>
      <trkpt lat="44.02877" lon="6.04606">
        <ele>647.40002441406</ele>
        <time>2017-12-03T12:47:13.000Z</time>
      </trkpt>
      <trkpt lat="44.02897" lon="6.04623">
        <ele>648.59997558594</ele>
        <time>2017-12-03T12:47:33.000Z</time>
      </trkpt>
      <trkpt lat="44.02914" lon="6.04632">
        <ele>648.40002441406</ele>
        <time>2017-12-03T12:47:48.000Z</time>
      </trkpt>
      <trkpt lat="44.02919" lon="6.04636">
        <ele>649.20001220703</ele>
        <time>2017-12-03T12:47:54.000Z</time>
      </trkpt>
      <trkpt lat="44.02936" lon="6.04655">
        <ele>651.59997558594</ele>
        <time>2017-12-03T12:48:12.000Z</time>
      </trkpt>
      <trkpt lat="44.02952" lon="6.04661">
        <ele>652.79998779297</ele>
        <time>2017-12-03T12:48:27.000Z</time>
      </trkpt>
      <trkpt lat="44.02971" lon="6.04658">
        <ele>650.79998779297</ele>
        <time>2017-12-03T12:48:44.000Z</time>
      </trkpt>
      <trkpt lat="44.02991" lon="6.04652">
        <ele>648</ele>
        <time>2017-12-03T12:49:02.000Z</time>
      </trkpt>
      <trkpt lat="44.02992" lon="6.04651">
        <ele>647.79998779297</ele>
        <time>2017-12-03T12:49:04.000Z</time>
      </trkpt>
      <trkpt lat="44.03015" lon="6.04646">
        <ele>645.79998779297</ele>
        <time>2017-12-03T12:49:25.000Z</time>
      </trkpt>
      <trkpt lat="44.03024" lon="6.04646">
        <ele>645.59997558594</ele>
        <time>2017-12-03T12:49:32.000Z</time>
      </trkpt>
      <trkpt lat="44.0303" lon="6.04647">
        <ele>646.40002441406</ele>
        <time>2017-12-03T12:49:37.000Z</time>
      </trkpt>
      <trkpt lat="44.03053" lon="6.04644">
        <ele>644.40002441406</ele>
        <time>2017-12-03T12:49:58.000Z</time>
      </trkpt>
      <trkpt lat="44.03071" lon="6.04646">
        <ele>642.20001220703</ele>
        <time>2017-12-03T12:50:15.000Z</time>
      </trkpt>
      <trkpt lat="44.03094" lon="6.04647">
        <ele>642</ele>
        <time>2017-12-03T12:50:35.000Z</time>
      </trkpt>
      <trkpt lat="44.03114" lon="6.04649">
        <ele>641.79998779297</ele>
        <time>2017-12-03T12:50:52.000Z</time>
      </trkpt>
      <trkpt lat="44.03136" lon="6.04654">
        <ele>642.40002441406</ele>
        <time>2017-12-03T12:51:10.000Z</time>
      </trkpt>
      <trkpt lat="44.03146" lon="6.04657">
        <ele>642.79998779297</ele>
        <time>2017-12-03T12:51:20.000Z</time>
      </trkpt>
      <trkpt lat="44.03161" lon="6.04652">
        <ele>641.59997558594</ele>
        <time>2017-12-03T12:51:37.000Z</time>
      </trkpt>
      <trkpt lat="44.03164" lon="6.04636">
        <ele>637</ele>
        <time>2017-12-03T12:51:58.000Z</time>
      </trkpt>
      <trkpt lat="44.03158" lon="6.04628">
        <ele>635</ele>
        <time>2017-12-03T12:52:06.000Z</time>
      </trkpt>
      <trkpt lat="44.03144" lon="6.04619">
        <ele>633</ele>
        <time>2017-12-03T12:52:20.000Z</time>
      </trkpt>
      <trkpt lat="44.03135" lon="6.0462">
        <ele>632.20001220703</ele>
        <time>2017-12-03T12:52:28.000Z</time>
      </trkpt>
      <trkpt lat="44.03127" lon="6.04608">
        <ele>631</ele>
        <time>2017-12-03T12:52:46.000Z</time>
      </trkpt>
      <trkpt lat="44.03152" lon="6.04593">
        <ele>627.79998779297</ele>
        <time>2017-12-03T12:53:14.000Z</time>
      </trkpt>
      <trkpt lat="44.03185" lon="6.04583">
        <ele>624.20001220703</ele>
        <time>2017-12-03T12:53:48.000Z</time>
      </trkpt>
      <trkpt lat="44.03216" lon="6.04583">
        <ele>618.40002441406</ele>
        <time>2017-12-03T12:54:20.000Z</time>
      </trkpt>
      <trkpt lat="44.03248" lon="6.04586">
        <ele>614.59997558594</ele>
        <time>2017-12-03T12:54:48.000Z</time>
      </trkpt>
      <trkpt lat="44.03274" lon="6.04596">
        <ele>612.20001220703</ele>
        <time>2017-12-03T12:55:12.000Z</time>
      </trkpt>
      <trkpt lat="44.03294" lon="6.04603">
        <ele>611.20001220703</ele>
        <time>2017-12-03T12:55:30.000Z</time>
      </trkpt>
      <trkpt lat="44.0331" lon="6.04608">
        <ele>611.20001220703</ele>
        <time>2017-12-03T12:55:44.000Z</time>
      </trkpt>
      <trkpt lat="44.03323" lon="6.04611">
        <ele>611</ele>
        <time>2017-12-03T12:55:59.000Z</time>
      </trkpt>
      <trkpt lat="44.03336" lon="6.04611">
        <ele>609.40002441406</ele>
        <time>2017-12-03T12:56:26.000Z</time>
      </trkpt>
      <trkpt lat="44.03356" lon="6.04605">
        <ele>608.20001220703</ele>
        <time>2017-12-03T12:56:50.000Z</time>
      </trkpt>
      <trkpt lat="44.03374" lon="6.04585">
        <ele>605.20001220703</ele>
        <time>2017-12-03T12:57:14.000Z</time>
      </trkpt>
      <trkpt lat="44.03388" lon="6.04563">
        <ele>603.20001220703</ele>
        <time>2017-12-03T12:57:32.000Z</time>
      </trkpt>
      <trkpt lat="44.03398" lon="6.04538">
        <ele>598.40002441406</ele>
        <time>2017-12-03T12:57:52.000Z</time>
      </trkpt>
      <trkpt lat="44.03403" lon="6.04509">
        <ele>595.20001220703</ele>
        <time>2017-12-03T12:58:13.000Z</time>
      </trkpt>
      <trkpt lat="44.03425" lon="6.04496">
        <ele>593</ele>
        <time>2017-12-03T12:58:38.000Z</time>
      </trkpt>
      <trkpt lat="44.03437" lon="6.04489">
        <ele>591.20001220703</ele>
        <time>2017-12-03T12:59:01.000Z</time>
      </trkpt>
      <trkpt lat="44.03441" lon="6.04488">
        <ele>591</ele>
        <time>2017-12-03T12:59:06.000Z</time>
      </trkpt>
      <trkpt lat="44.03464" lon="6.04494">
        <ele>589.20001220703</ele>
        <time>2017-12-03T12:59:32.000Z</time>
      </trkpt>
      <trkpt lat="44.03471" lon="6.045">
        <ele>588.79998779297</ele>
        <time>2017-12-03T12:59:53.000Z</time>
      </trkpt>
      <trkpt lat="44.03464" lon="6.04496">
        <ele>587.59997558594</ele>
        <time>2017-12-03T13:00:16.000Z</time>
      </trkpt>
      <trkpt lat="44.03462" lon="6.04475">
        <ele>586</ele>
        <time>2017-12-03T13:00:35.000Z</time>
      </trkpt>
      <trkpt lat="44.03461" lon="6.04454">
        <ele>584.40002441406</ele>
        <time>2017-12-03T13:00:57.000Z</time>
      </trkpt>
      <trkpt lat="44.03463" lon="6.04457">
        <ele>584.20001220703</ele>
        <time>2017-12-03T13:01:21.000Z</time>
      </trkpt>
      <trkpt lat="44.03466" lon="6.04459">
        <ele>584.59997558594</ele>
        <time>2017-12-03T13:01:40.000Z</time>
      </trkpt>
      <trkpt lat="44.03474" lon="6.04451">
        <ele>582.59997558594</ele>
        <time>2017-12-03T13:02:52.000Z</time>
      </trkpt>
      <trkpt lat="44.03465" lon="6.04447">
        <ele>581.59997558594</ele>
        <time>2017-12-03T13:03:22.000Z</time>
      </trkpt>
      <trkpt lat="44.03447" lon="6.0443">
        <ele>579.79998779297</ele>
        <time>2017-12-03T13:03:43.000Z</time>
      </trkpt>
      <trkpt lat="44.03425" lon="6.04409">
        <ele>577.79998779297</ele>
        <time>2017-12-03T13:04:06.000Z</time>
      </trkpt>
      <trkpt lat="44.03407" lon="6.04389">
        <ele>575.20001220703</ele>
        <time>2017-12-03T13:04:29.000Z</time>
      </trkpt>
      <trkpt lat="44.0338" lon="6.0437">
        <ele>572.79998779297</ele>
        <time>2017-12-03T13:04:55.000Z</time>
      </trkpt>
      <trkpt lat="44.03357" lon="6.04362">
        <ele>570.79998779297</ele>
        <time>2017-12-03T13:05:21.000Z</time>
      </trkpt>
      <trkpt lat="44.03341" lon="6.04339">
        <ele>569.79998779297</ele>
        <time>2017-12-03T13:05:42.000Z</time>
      </trkpt>
      <trkpt lat="44.0332" lon="6.04319">
        <ele>567.40002441406</ele>
        <time>2017-12-03T13:06:11.000Z</time>
      </trkpt>
      <trkpt lat="44.03319" lon="6.04318">
        <ele>567.40002441406</ele>
        <time>2017-12-03T13:06:13.000Z</time>
      </trkpt>
      <trkpt lat="44.03308" lon="6.04294">
        <ele>565</ele>
        <time>2017-12-03T13:06:33.000Z</time>
      </trkpt>
      <trkpt lat="44.03298" lon="6.04269">
        <ele>562</ele>
        <time>2017-12-03T13:06:55.000Z</time>
      </trkpt>
      <trkpt lat="44.03281" lon="6.04253">
        <ele>559.20001220703</ele>
        <time>2017-12-03T13:07:17.000Z</time>
      </trkpt>
      <trkpt lat="44.03293" lon="6.04229">
        <ele>557.40002441406</ele>
        <time>2017-12-03T13:07:44.000Z</time>
      </trkpt>
      <trkpt lat="44.03312" lon="6.04214">
        <ele>554.40002441406</ele>
        <time>2017-12-03T13:08:10.000Z</time>
      </trkpt>
      <trkpt lat="44.03337" lon="6.04201">
        <ele>551</ele>
        <time>2017-12-03T13:08:37.000Z</time>
      </trkpt>
      <trkpt lat="44.03345" lon="6.04172">
        <ele>545.40002441406</ele>
        <time>2017-12-03T13:09:02.000Z</time>
      </trkpt>
      <trkpt lat="44.03356" lon="6.0414">
        <ele>540.59997558594</ele>
        <time>2017-12-03T13:09:27.000Z</time>
      </trkpt>
      <trkpt lat="44.03355" lon="6.04118">
        <ele>535.40002441406</ele>
        <time>2017-12-03T13:09:49.000Z</time>
      </trkpt>
      <trkpt lat="44.03338" lon="6.04091">
        <ele>529.40002441406</ele>
        <time>2017-12-03T13:10:15.000Z</time>
      </trkpt>
      <trkpt lat="44.03319" lon="6.0406">
        <ele>524.20001220703</ele>
        <time>2017-12-03T13:10:40.000Z</time>
      </trkpt>
      <trkpt lat="44.03301" lon="6.04028">
        <ele>519.40002441406</ele>
        <time>2017-12-03T13:11:05.000Z</time>
      </trkpt>
      <trkpt lat="44.03277" lon="6.03998">
        <ele>514</ele>
        <time>2017-12-03T13:11:35.000Z</time>
      </trkpt>
      <trkpt lat="44.03274" lon="6.03994">
        <ele>512.40002441406</ele>
        <time>2017-12-03T13:11:43.000Z</time>
      </trkpt>
      <trkpt lat="44.0327" lon="6.03993">
        <ele>511.60000610352</ele>
        <time>2017-12-03T13:12:29.000Z</time>
      </trkpt>
      <trkpt lat="44.03267" lon="6.03992">
        <ele>513.20001220703</ele>
        <time>2017-12-03T13:13:35.000Z</time>
      </trkpt>
      <trkpt lat="44.0325" lon="6.03977">
        <ele>511.20001220703</ele>
        <time>2017-12-03T13:13:56.000Z</time>
      </trkpt>
      <trkpt lat="44.03249" lon="6.03976">
        <ele>511.20001220703</ele>
        <time>2017-12-03T13:13:57.000Z</time>
      </trkpt>
      <trkpt lat="44.03232" lon="6.03968">
        <ele>511</ele>
        <time>2017-12-03T13:14:15.000Z</time>
      </trkpt>
      <trkpt lat="44.03209" lon="6.03957">
        <ele>509.79998779297</ele>
        <time>2017-12-03T13:14:36.000Z</time>
      </trkpt>
      <trkpt lat="44.03196" lon="6.03938">
        <ele>508</ele>
        <time>2017-12-03T13:14:52.000Z</time>
      </trkpt>
      <trkpt lat="44.03173" lon="6.03924">
        <ele>505.60000610352</ele>
        <time>2017-12-03T13:15:15.000Z</time>
      </trkpt>
      <trkpt lat="44.03163" lon="6.03914">
        <ele>505</ele>
        <time>2017-12-03T13:15:25.000Z</time>
      </trkpt>
      <trkpt lat="44.03161" lon="6.0391">
        <ele>504.79998779297</ele>
        <time>2017-12-03T13:15:28.000Z</time>
      </trkpt>
      <trkpt lat="44.03145" lon="6.03894">
        <ele>503.79998779297</ele>
        <time>2017-12-03T13:15:47.000Z</time>
      </trkpt>
      <trkpt lat="44.03147" lon="6.03873">
        <ele>502.60000610352</ele>
        <time>2017-12-03T13:16:08.000Z</time>
      </trkpt>
      <trkpt lat="44.0317" lon="6.03868">
        <ele>503.60000610352</ele>
        <time>2017-12-03T13:16:38.000Z</time>
      </trkpt>
      <trkpt lat="44.03194" lon="6.03862">
        <ele>506.60000610352</ele>
        <time>2017-12-03T13:17:06.000Z</time>
      </trkpt>
      <trkpt lat="44.03216" lon="6.03879">
        <ele>507.39999389648</ele>
        <time>2017-12-03T13:17:31.000Z</time>
      </trkpt>
      <trkpt lat="44.03242" lon="6.03889">
        <ele>506.39999389648</ele>
        <time>2017-12-03T13:17:58.000Z</time>
      </trkpt>
      <trkpt lat="44.03265" lon="6.039">
        <ele>503.39999389648</ele>
        <time>2017-12-03T13:18:25.000Z</time>
      </trkpt>
      <trkpt lat="44.03291" lon="6.03919">
        <ele>499.79998779297</ele>
        <time>2017-12-03T13:18:55.000Z</time>
      </trkpt>
      <trkpt lat="44.03307" lon="6.03927">
        <ele>496.60000610352</ele>
        <time>2017-12-03T13:19:09.000Z</time>
      </trkpt>
      <trkpt lat="44.03328" lon="6.03934">
        <ele>492.20001220703</ele>
        <time>2017-12-03T13:19:35.000Z</time>
      </trkpt>
      <trkpt lat="44.03345" lon="6.03937">
        <ele>488.39999389648</ele>
        <time>2017-12-03T13:19:54.000Z</time>
      </trkpt>
      <trkpt lat="44.03351" lon="6.03935">
        <ele>487.20001220703</ele>
        <time>2017-12-03T13:20:02.000Z</time>
      </trkpt>
      <trkpt lat="44.03378" lon="6.03938">
        <ele>486</ele>
        <time>2017-12-03T13:20:26.000Z</time>
      </trkpt>
      <trkpt lat="44.03395" lon="6.0396">
        <ele>484.79998779297</ele>
        <time>2017-12-03T13:20:54.000Z</time>
      </trkpt>
      <trkpt lat="44.03395" lon="6.03961">
        <ele>484.79998779297</ele>
        <time>2017-12-03T13:20:55.000Z</time>
      </trkpt>
      <trkpt lat="44.03414" lon="6.03984">
        <ele>483.39999389648</ele>
        <time>2017-12-03T13:21:21.000Z</time>
      </trkpt>
      <trkpt lat="44.03419" lon="6.04003">
        <ele>482.79998779297</ele>
        <time>2017-12-03T13:21:38.000Z</time>
      </trkpt>
      <trkpt lat="44.03431" lon="6.0402">
        <ele>482.20001220703</ele>
        <time>2017-12-03T13:21:56.000Z</time>
      </trkpt>
      <trkpt lat="44.03433" lon="6.04028">
        <ele>482.39999389648</ele>
        <time>2017-12-03T13:22:03.000Z</time>
      </trkpt>
      <trkpt lat="44.03455" lon="6.04027">
        <ele>481.79998779297</ele>
        <time>2017-12-03T13:22:25.000Z</time>
      </trkpt>
      <trkpt lat="44.03475" lon="6.04026">
        <ele>480.39999389648</ele>
        <time>2017-12-03T13:22:44.000Z</time>
      </trkpt>
      <trkpt lat="44.03496" lon="6.04021">
        <ele>480.20001220703</ele>
        <time>2017-12-03T13:23:04.000Z</time>
      </trkpt>
      <trkpt lat="44.03516" lon="6.04021">
        <ele>479.39999389648</ele>
        <time>2017-12-03T13:23:24.000Z</time>
      </trkpt>
      <trkpt lat="44.03539" lon="6.0402">
        <ele>478.60000610352</ele>
        <time>2017-12-03T13:23:48.000Z</time>
      </trkpt>
      <trkpt lat="44.03557" lon="6.04031">
        <ele>477</ele>
        <time>2017-12-03T13:24:14.000Z</time>
      </trkpt>
      <trkpt lat="44.03577" lon="6.0403">
        <ele>476</ele>
        <time>2017-12-03T13:24:37.000Z</time>
      </trkpt>
      <trkpt lat="44.036" lon="6.0404">
        <ele>475</ele>
        <time>2017-12-03T13:25:00.000Z</time>
      </trkpt>
      <trkpt lat="44.03614" lon="6.04047">
        <ele>474.60000610352</ele>
        <time>2017-12-03T13:25:15.000Z</time>
      </trkpt>
      <trkpt lat="44.03641" lon="6.04058">
        <ele>472.39999389648</ele>
        <time>2017-12-03T13:25:40.000Z</time>
      </trkpt>
      <trkpt lat="44.03656" lon="6.04062">
        <ele>470.60000610352</ele>
        <time>2017-12-03T13:25:55.000Z</time>
      </trkpt>
      <trkpt lat="44.03663" lon="6.04064">
        <ele>469.20001220703</ele>
        <time>2017-12-03T13:26:03.000Z</time>
      </trkpt>
      <trkpt lat="44.0368" lon="6.04076">
        <ele>464.20001220703</ele>
        <time>2017-12-03T13:26:27.000Z</time>
      </trkpt>
      <trkpt lat="44.0368" lon="6.04098">
        <ele>461.39999389648</ele>
        <time>2017-12-03T13:26:47.000Z</time>
      </trkpt>
      <trkpt lat="44.03694" lon="6.04125">
        <ele>460.39999389648</ele>
        <time>2017-12-03T13:27:12.000Z</time>
      </trkpt>
      <trkpt lat="44.03699" lon="6.04131">
        <ele>460</ele>
        <time>2017-12-03T13:27:20.000Z</time>
      </trkpt>
      <trkpt lat="44.03726" lon="6.04144">
        <ele>459</ele>
        <time>2017-12-03T13:27:50.000Z</time>
      </trkpt>
      <trkpt lat="44.03744" lon="6.04164">
        <ele>456.60000610352</ele>
        <time>2017-12-03T13:28:17.000Z</time>
      </trkpt>
      <trkpt lat="44.03768" lon="6.04189">
        <ele>453.39999389648</ele>
        <time>2017-12-03T13:28:44.000Z</time>
      </trkpt>
      <trkpt lat="44.03788" lon="6.04197">
        <ele>452.60000610352</ele>
        <time>2017-12-03T13:29:05.000Z</time>
      </trkpt>
      <trkpt lat="44.03816" lon="6.04194">
        <ele>452.39999389648</ele>
        <time>2017-12-03T13:29:26.000Z</time>
      </trkpt>
      <trkpt lat="44.03843" lon="6.04183">
        <ele>452.20001220703</ele>
        <time>2017-12-03T13:29:50.000Z</time>
      </trkpt>
      <trkpt lat="44.03858" lon="6.04178">
        <ele>451</ele>
        <time>2017-12-03T13:30:08.000Z</time>
      </trkpt>
      <trkpt lat="44.03866" lon="6.04177">
        <ele>450.20001220703</ele>
        <time>2017-12-03T13:30:25.000Z</time>
      </trkpt>
      <trkpt lat="44.03869" lon="6.04177">
        <ele>450</ele>
        <time>2017-12-03T13:31:05.000Z</time>
      </trkpt>
      <trkpt lat="44.03895" lon="6.04185">
        <ele>449.60000610352</ele>
        <time>2017-12-03T13:31:30.000Z</time>
      </trkpt>
      <trkpt lat="44.03913" lon="6.04203">
        <ele>452</ele>
        <time>2017-12-03T13:31:50.000Z</time>
      </trkpt>
      <trkpt lat="44.03938" lon="6.04221">
        <ele>456.39999389648</ele>
        <time>2017-12-03T13:32:16.000Z</time>
      </trkpt>
      <trkpt lat="44.0395" lon="6.04218">
        <ele>457.79998779297</ele>
        <time>2017-12-03T13:32:25.000Z</time>
      </trkpt>
      <trkpt lat="44.03973" lon="6.04202">
        <ele>460.60000610352</ele>
        <time>2017-12-03T13:32:46.000Z</time>
      </trkpt>
      <trkpt lat="44.04001" lon="6.04194">
        <ele>460</ele>
        <time>2017-12-03T13:33:12.000Z</time>
      </trkpt>
      <trkpt lat="44.04011" lon="6.04198">
        <ele>458.60000610352</ele>
        <time>2017-12-03T13:33:21.000Z</time>
      </trkpt>
      <trkpt lat="44.04025" lon="6.04222">
        <ele>457.20001220703</ele>
        <time>2017-12-03T13:33:42.000Z</time>
      </trkpt>
      <trkpt lat="44.04034" lon="6.04226">
        <ele>455.20001220703</ele>
        <time>2017-12-03T13:33:59.000Z</time>
      </trkpt>
      <trkpt lat="44.04034" lon="6.04224">
        <ele>455</ele>
        <time>2017-12-03T13:34:02.000Z</time>
      </trkpt>
      <trkpt lat="44.04032" lon="6.04207">
        <ele>453.79998779297</ele>
        <time>2017-12-03T13:34:11.000Z</time>
      </trkpt>
      <trkpt lat="44.0403" lon="6.04194">
        <ele>453.79998779297</ele>
        <time>2017-12-03T13:34:19.000Z</time>
      </trkpt>
      <trkpt lat="44.04032" lon="6.04187">
        <ele>453.79998779297</ele>
        <time>2017-12-03T13:34:23.000Z</time>
      </trkpt>
      <trkpt lat="44.04049" lon="6.04183">
        <ele>451.60000610352</ele>
        <time>2017-12-03T13:34:39.000Z</time>
      </trkpt>
      <trkpt lat="44.04069" lon="6.04191">
        <ele>449.39999389648</ele>
        <time>2017-12-03T13:34:53.000Z</time>
      </trkpt>
      <trkpt lat="44.04072" lon="6.04193">
        <ele>448.79998779297</ele>
        <time>2017-12-03T13:34:56.000Z</time>
      </trkpt>
      <trkpt lat="44.04088" lon="6.04212">
        <ele>446.20001220703</ele>
        <time>2017-12-03T13:35:14.000Z</time>
      </trkpt>
      <trkpt lat="44.04089" lon="6.04213">
        <ele>446</ele>
        <time>2017-12-03T13:35:15.000Z</time>
      </trkpt>
      <trkpt lat="44.04102" lon="6.04217">
        <ele>443.39999389648</ele>
        <time>2017-12-03T13:35:27.000Z</time>
      </trkpt>
      <trkpt lat="44.04116" lon="6.04219">
        <ele>442.60000610352</ele>
        <time>2017-12-03T13:35:40.000Z</time>
      </trkpt>
      <trkpt lat="44.04142" lon="6.04212">
        <ele>436.79998779297</ele>
        <time>2017-12-03T13:36:03.000Z</time>
      </trkpt>
      <trkpt lat="44.04157" lon="6.04198">
        <ele>433.20001220703</ele>
        <time>2017-12-03T13:36:18.000Z</time>
      </trkpt>
      <trkpt lat="44.04158" lon="6.04195">
        <ele>432.60000610352</ele>
        <time>2017-12-03T13:36:20.000Z</time>
      </trkpt>
      <trkpt lat="44.04164" lon="6.04187">
        <ele>431.39999389648</ele>
        <time>2017-12-03T13:36:24.000Z</time>
      </trkpt>
      <trkpt lat="44.04165" lon="6.04184">
        <ele>430.79998779297</ele>
        <time>2017-12-03T13:36:26.000Z</time>
      </trkpt>
      <trkpt lat="44.04167" lon="6.04169">
        <ele>428.79998779297</ele>
        <time>2017-12-03T13:36:38.000Z</time>
      </trkpt>
      <trkpt lat="44.04171" lon="6.04152">
        <ele>428</ele>
        <time>2017-12-03T13:37:00.000Z</time>
      </trkpt>
      <trkpt lat="44.04171" lon="6.04138">
        <ele>427</ele>
        <time>2017-12-03T13:37:09.000Z</time>
      </trkpt>
      <trkpt lat="44.0417" lon="6.04127">
        <ele>426.79998779297</ele>
        <time>2017-12-03T13:37:14.000Z</time>
      </trkpt>
      <trkpt lat="44.04172" lon="6.04108">
        <ele>426.39999389648</ele>
        <time>2017-12-03T13:37:24.000Z</time>
      </trkpt>
      <trkpt lat="44.04172" lon="6.04095">
        <ele>427.39999389648</ele>
        <time>2017-12-03T13:37:31.000Z</time>
      </trkpt>
      <trkpt lat="44.04172" lon="6.04086">
        <ele>427.79998779297</ele>
        <time>2017-12-03T13:37:36.000Z</time>
      </trkpt>
      <trkpt lat="44.04172" lon="6.04083">
        <ele>428.20001220703</ele>
        <time>2017-12-03T13:37:38.000Z</time>
      </trkpt>
      <trkpt lat="44.0417" lon="6.04076">
        <ele>428.79998779297</ele>
        <time>2017-12-03T13:37:42.000Z</time>
      </trkpt>
      <trkpt lat="44.0417" lon="6.04055">
        <ele>429.60000610352</ele>
        <time>2017-12-03T13:37:56.000Z</time>
      </trkpt>
      <trkpt lat="44.0417" lon="6.0404">
        <ele>430.39999389648</ele>
        <time>2017-12-03T13:38:06.000Z</time>
      </trkpt>
      <trkpt lat="44.0417" lon="6.04033">
        <ele>430.39999389648</ele>
        <time>2017-12-03T13:38:10.000Z</time>
      </trkpt>
      <trkpt lat="44.04171" lon="6.04012">
        <ele>430.20001220703</ele>
        <time>2017-12-03T13:38:22.000Z</time>
      </trkpt>
      <trkpt lat="44.04171" lon="6.03999">
        <ele>430.79998779297</ele>
        <time>2017-12-03T13:38:29.000Z</time>
      </trkpt>
      <trkpt lat="44.04173" lon="6.03982">
        <ele>431.39999389648</ele>
        <time>2017-12-03T13:38:39.000Z</time>
      </trkpt>
      <trkpt lat="44.04176" lon="6.03968">
        <ele>432.60000610352</ele>
        <time>2017-12-03T13:38:48.000Z</time>
      </trkpt>
      <trkpt lat="44.04176" lon="6.03967">
        <ele>432.79998779297</ele>
        <time>2017-12-03T13:38:49.000Z</time>
      </trkpt>
      <trkpt lat="44.04177" lon="6.03961">
        <ele>433</ele>
        <time>2017-12-03T13:38:52.000Z</time>
      </trkpt>
      <trkpt lat="44.04178" lon="6.03958">
        <ele>433</ele>
        <time>2017-12-03T13:38:54.000Z</time>
      </trkpt>
      <trkpt lat="44.04181" lon="6.03947">
        <ele>433.39999389648</ele>
        <time>2017-12-03T13:39:01.000Z</time>
      </trkpt>
      <trkpt lat="44.04184" lon="6.03933">
        <ele>434</ele>
        <time>2017-12-03T13:39:10.000Z</time>
      </trkpt>
      <trkpt lat="44.04186" lon="6.03918">
        <ele>434.60000610352</ele>
        <time>2017-12-03T13:39:19.000Z</time>
      </trkpt>
      <trkpt lat="44.04193" lon="6.0389">
        <ele>435.60000610352</ele>
        <time>2017-12-03T13:39:36.000Z</time>
      </trkpt>
      <trkpt lat="44.04194" lon="6.03883">
        <ele>436.39999389648</ele>
        <time>2017-12-03T13:39:40.000Z</time>
      </trkpt>
      <trkpt lat="44.04196" lon="6.03862">
        <ele>437</ele>
        <time>2017-12-03T13:39:54.000Z</time>
      </trkpt>
      <trkpt lat="44.04195" lon="6.03841">
        <ele>437.39999389648</ele>
        <time>2017-12-03T13:40:09.000Z</time>
      </trkpt>
      <trkpt lat="44.04195" lon="6.0382">
        <ele>437.20001220703</ele>
        <time>2017-12-03T13:40:23.000Z</time>
      </trkpt>
      <trkpt lat="44.04195" lon="6.03795">
        <ele>436.79998779297</ele>
        <time>2017-12-03T13:40:37.000Z</time>
      </trkpt>
      <trkpt lat="44.04196" lon="6.03769">
        <ele>437</ele>
        <time>2017-12-03T13:40:55.000Z</time>
      </trkpt>
      <trkpt lat="44.04194" lon="6.03747">
        <ele>437</ele>
        <time>2017-12-03T13:41:09.000Z</time>
      </trkpt>
      <trkpt lat="44.04201" lon="6.03709">
        <ele>438</ele>
        <time>2017-12-03T13:41:32.000Z</time>
      </trkpt>
      <trkpt lat="44.04206" lon="6.03689">
        <ele>439.20001220703</ele>
        <time>2017-12-03T13:41:47.000Z</time>
      </trkpt>
      <trkpt lat="44.04202" lon="6.03654">
        <ele>439.20001220703</ele>
        <time>2017-12-03T13:42:06.000Z</time>
      </trkpt>
      <trkpt lat="44.04203" lon="6.03628">
        <ele>441.20001220703</ele>
        <time>2017-12-03T13:42:23.000Z</time>
      </trkpt>
      <trkpt lat="44.04206" lon="6.03607">
        <ele>442.79998779297</ele>
        <time>2017-12-03T13:42:39.000Z</time>
      </trkpt>
      <trkpt lat="44.04207" lon="6.0358">
        <ele>443.39999389648</ele>
        <time>2017-12-03T13:42:50.000Z</time>
      </trkpt>
      <trkpt lat="44.04209" lon="6.03562">
        <ele>444</ele>
        <time>2017-12-03T13:43:01.000Z</time>
      </trkpt>
      <trkpt lat="44.04208" lon="6.03543">
        <ele>445</ele>
        <time>2017-12-03T13:43:13.000Z</time>
      </trkpt>
      <trkpt lat="44.04208" lon="6.03515">
        <ele>446.60000610352</ele>
        <time>2017-12-03T13:43:30.000Z</time>
      </trkpt>
      <trkpt lat="44.04209" lon="6.035">
        <ele>446.60000610352</ele>
        <time>2017-12-03T13:43:40.000Z</time>
      </trkpt>
      <trkpt lat="44.04211" lon="6.03483">
        <ele>447.20001220703</ele>
        <time>2017-12-03T13:43:51.000Z</time>
      </trkpt>
      <trkpt lat="44.04211" lon="6.03478">
        <ele>447.20001220703</ele>
        <time>2017-12-03T13:43:54.000Z</time>
      </trkpt>
      <trkpt lat="44.04212" lon="6.03472">
        <ele>447.39999389648</ele>
        <time>2017-12-03T13:43:58.000Z</time>
      </trkpt>
      <trkpt lat="44.04212" lon="6.03465">
        <ele>447.60000610352</ele>
        <time>2017-12-03T13:44:02.000Z</time>
      </trkpt>
      <trkpt lat="44.04212" lon="6.03441">
        <ele>446.79998779297</ele>
        <time>2017-12-03T13:44:16.000Z</time>
      </trkpt>
      <trkpt lat="44.04212" lon="6.03435">
        <ele>445.79998779297</ele>
        <time>2017-12-03T13:44:20.000Z</time>
      </trkpt>
      <trkpt lat="44.0421" lon="6.03407">
        <ele>443.79998779297</ele>
        <time>2017-12-03T13:44:38.000Z</time>
      </trkpt>
      <trkpt lat="44.04209" lon="6.034">
        <ele>443.39999389648</ele>
        <time>2017-12-03T13:44:43.000Z</time>
      </trkpt>
      <trkpt lat="44.04209" lon="6.03369">
        <ele>440.60000610352</ele>
        <time>2017-12-03T13:45:01.000Z</time>
      </trkpt>
      <trkpt lat="44.0421" lon="6.03339">
        <ele>440.39999389648</ele>
        <time>2017-12-03T13:45:19.000Z</time>
      </trkpt>
      <trkpt lat="44.0421" lon="6.03322">
        <ele>441</ele>
        <time>2017-12-03T13:45:29.000Z</time>
      </trkpt>
      <trkpt lat="44.04209" lon="6.03308">
        <ele>441</ele>
        <time>2017-12-03T13:45:38.000Z</time>
      </trkpt>
      <trkpt lat="44.04204" lon="6.03294">
        <ele>442.20001220703</ele>
        <time>2017-12-03T13:45:51.000Z</time>
      </trkpt>
      <trkpt lat="44.04195" lon="6.03262">
        <ele>442.39999389648</ele>
        <time>2017-12-03T13:46:13.000Z</time>
      </trkpt>
      <trkpt lat="44.04198" lon="6.03253">
        <ele>443</ele>
        <time>2017-12-03T13:46:19.000Z</time>
      </trkpt>
      <trkpt lat="44.04209" lon="6.03242">
        <ele>443.79998779297</ele>
        <time>2017-12-03T13:46:31.000Z</time>
      </trkpt>
      <trkpt lat="44.0422" lon="6.03228">
        <ele>443.60000610352</ele>
        <time>2017-12-03T13:46:46.000Z</time>
      </trkpt>
      <trkpt lat="44.04226" lon="6.03207">
        <ele>443.20001220703</ele>
        <time>2017-12-03T13:46:59.000Z</time>
      </trkpt>
      <trkpt lat="44.04227" lon="6.03206">
        <ele>443</ele>
        <time>2017-12-03T13:47:00.000Z</time>
      </trkpt>
      <trkpt lat="44.04228" lon="6.03199">
        <ele>443</ele>
        <time>2017-12-03T13:47:05.000Z</time>
      </trkpt>
      <trkpt lat="44.0423" lon="6.03191">
        <ele>442.20001220703</ele>
        <time>2017-12-03T13:47:11.000Z</time>
      </trkpt>
      <trkpt lat="44.0423" lon="6.03183">
        <ele>441.20001220703</ele>
        <time>2017-12-03T13:47:15.000Z</time>
      </trkpt>
      <trkpt lat="44.04231" lon="6.03176">
        <ele>440.20001220703</ele>
        <time>2017-12-03T13:47:19.000Z</time>
      </trkpt>
      <trkpt lat="44.04237" lon="6.03145">
        <ele>436.20001220703</ele>
        <time>2017-12-03T13:47:38.000Z</time>
      </trkpt>
      <trkpt lat="44.04241" lon="6.03128">
        <ele>434</ele>
        <time>2017-12-03T13:47:50.000Z</time>
      </trkpt>
      <trkpt lat="44.04247" lon="6.03113">
        <ele>432</ele>
        <time>2017-12-03T13:48:00.000Z</time>
      </trkpt>
      <trkpt lat="44.04248" lon="6.0311">
        <ele>431.39999389648</ele>
        <time>2017-12-03T13:48:02.000Z</time>
      </trkpt>
      <trkpt lat="44.04255" lon="6.03094">
        <ele>430</ele>
        <time>2017-12-03T13:48:14.000Z</time>
      </trkpt>
      <trkpt lat="44.04258" lon="6.03088">
        <ele>429.60000610352</ele>
        <time>2017-12-03T13:48:19.000Z</time>
      </trkpt>
      <trkpt lat="44.04266" lon="6.03068">
        <ele>427.79998779297</ele>
        <time>2017-12-03T13:48:34.000Z</time>
      </trkpt>
      <trkpt lat="44.04269" lon="6.03056">
        <ele>427</ele>
        <time>2017-12-03T13:48:47.000Z</time>
      </trkpt>
      <trkpt lat="44.04274" lon="6.03045">
        <ele>427.39999389648</ele>
        <time>2017-12-03T13:48:56.000Z</time>
      </trkpt>
      <trkpt lat="44.04287" lon="6.03025">
        <ele>429.20001220703</ele>
        <time>2017-12-03T13:49:12.000Z</time>
      </trkpt>
      <trkpt lat="44.04292" lon="6.03017">
        <ele>430</ele>
        <time>2017-12-03T13:49:18.000Z</time>
      </trkpt>
      <trkpt lat="44.04301" lon="6.0299">
        <ele>430.60000610352</ele>
        <time>2017-12-03T13:49:37.000Z</time>
      </trkpt>
      <trkpt lat="44.04307" lon="6.02974">
        <ele>432</ele>
        <time>2017-12-03T13:49:51.000Z</time>
      </trkpt>
      <trkpt lat="44.04307" lon="6.02971">
        <ele>432.20001220703</ele>
        <time>2017-12-03T13:49:53.000Z</time>
      </trkpt>
      <trkpt lat="44.04316" lon="6.02948">
        <ele>433</ele>
        <time>2017-12-03T13:50:12.000Z</time>
      </trkpt>
      <trkpt lat="44.04327" lon="6.0292">
        <ele>433.39999389648</ele>
        <time>2017-12-03T13:50:31.000Z</time>
      </trkpt>
      <trkpt lat="44.04331" lon="6.02904">
        <ele>434.39999389648</ele>
        <time>2017-12-03T13:50:43.000Z</time>
      </trkpt>
      <trkpt lat="44.04319" lon="6.02888">
        <ele>435.39999389648</ele>
        <time>2017-12-03T13:50:59.000Z</time>
      </trkpt>
      <trkpt lat="44.04306" lon="6.02864">
        <ele>437.20001220703</ele>
        <time>2017-12-03T13:51:22.000Z</time>
      </trkpt>
      <trkpt lat="44.04301" lon="6.02846">
        <ele>439</ele>
        <time>2017-12-03T13:51:37.000Z</time>
      </trkpt>
      <trkpt lat="44.04298" lon="6.02828">
        <ele>439.39999389648</ele>
        <time>2017-12-03T13:51:50.000Z</time>
      </trkpt>
      <trkpt lat="44.04296" lon="6.02811">
        <ele>440.20001220703</ele>
        <time>2017-12-03T13:52:06.000Z</time>
      </trkpt>
      <trkpt lat="44.04293" lon="6.02806">
        <ele>438.60000610352</ele>
        <time>2017-12-03T13:52:23.000Z</time>
      </trkpt>
      <trkpt lat="44.04288" lon="6.02802">
        <ele>436.60000610352</ele>
        <time>2017-12-03T13:53:10.000Z</time>
      </trkpt>
      <trkpt lat="44.04292" lon="6.02806">
        <ele>437.60000610352</ele>
        <time>2017-12-03T13:53:49.000Z</time>
      </trkpt>
      <trkpt lat="44.04288" lon="6.02806">
        <ele>438.60000610352</ele>
        <time>2017-12-03T13:54:28.000Z</time>
      </trkpt>
      <trkpt lat="44.04289" lon="6.02809">
        <ele>437.79998779297</ele>
        <time>2017-12-03T13:54:42.000Z</time>
      </trkpt>
      <trkpt lat="44.04288" lon="6.02815">
        <ele>437.79998779297</ele>
        <time>2017-12-03T13:55:08.000Z</time>
      </trkpt>
      <trkpt lat="44.04285" lon="6.02814">
        <ele>437.60000610352</ele>
        <time>2017-12-03T13:55:22.000Z</time>
      </trkpt>
    </trkseg>
  </trk>
</gpx>